<?xml version='1.0' encoding='utf-8'?>
<gpx xmlns="http://www.topografix.com/GPX/1/1" xmlns:xsi="http://www.w3.org/2001/XMLSchema-instance" version="v1.1.5" creator="iTravel Tech Inc. - http://www.itravel-tech.com" xsi:schemaLocation="http://www.topografix.com/GPX/1/1 http://www.topografix.com/GPX/1/1/gpx.xsd http://www.topografix.com/GPX/gpx_overlay/0/3 http://www.topografix.com/GPX/gpx_overlay/0/3/gpx_overlay.xsd http://www.topografix.com/GPX/gpx_modified/0/1 http://www.topografix.com/GPX/gpx_modified/0/1/gpx_modified.xsd">
<trk>
<name>Holux2011/04/27_06:08</name>
<trkseg>
<trkpt lat="22.088186" lon="104.254097">
<ele>195.8</ele>
<time>2011-04-27T03:08:01Z</time>
<desc>lat.=22.088186, lon.=104.254097, Alt.=176.865356m. Speed=0.612000m/h.</desc>
<speed>0.170000</speed>
</trkpt>
<trkpt lat="22.088434" lon="104.254097">
<ele>195.0</ele>
<time>2011-04-27T03:08:31Z</time>
<desc>lat.=22.088434, lon.=104.254097, Alt.=177.072388m. Speed=1.296000m/h.</desc>
<speed>0.360000</speed>
</trkpt>
<trkpt lat="22.087618" lon="104.254036">
<ele>194.3</ele>
<time>2011-04-27T03:09:26Z</time>
<desc>lat.=22.087618, lon.=104.254036, Alt.=214.439575m. Speed=0.720000m/h.</desc>
<speed>0.200000</speed>
</trkpt>
<trkpt lat="22.087704" lon="104.253952">
<ele>195.6</ele>
<time>2011-04-27T03:10:21Z</time>
<desc>lat.=22.087704, lon.=104.253952, Alt.=209.888794m. Speed=0.648000m/h.</desc>
<speed>0.180000</speed>
</trkpt>
<trkpt lat="22.087570" lon="104.254364">
<ele>192.5</ele>
<time>2011-04-27T03:11:01Z</time>
<desc>lat.=22.087570, lon.=104.254364, Alt.=203.638794m. Speed=10.440000m/h.</desc>
<speed>2.900000</speed>
</trkpt>
<trkpt lat="22.089346" lon="104.254517">
<ele>199.4</ele>
<time>2011-04-27T03:12:01Z</time>
<desc>lat.=22.089346, lon.=104.254517, Alt.=189.447388m. Speed=4.248000m/h.</desc>
<speed>1.180000</speed>
</trkpt>
<trkpt lat="22.089634" lon="104.253624">
<ele>201.5</ele>
<time>2011-04-27T03:13:46Z</time>
<desc>lat.=22.089634, lon.=104.253624, Alt.=196.548950m. Speed=0.108000m/h.</desc>
<speed>0.030000</speed>
</trkpt>
<trkpt lat="22.089525" lon="104.253815">
<ele>200.2</ele>
<time>2011-04-27T04:09:46Z</time>
<desc>lat.=22.089525, lon.=104.253815, Alt.=205.955200m. Speed=12.024000m/h.</desc>
<speed>3.340000</speed>
</trkpt>
<trkpt lat="22.089586" lon="104.255974">
<ele>196.5</ele>
<time>2011-04-27T04:10:51Z</time>
<desc>lat.=22.089586, lon.=104.255974, Alt.=193.884888m. Speed=0.072000m/h.</desc>
<speed>0.020000</speed>
</trkpt>
<trkpt lat="22.089468" lon="104.257317">
<ele>195.6</ele>
<time>2011-04-27T04:13:31Z</time>
<desc>lat.=22.089468, lon.=104.257317, Alt.=189.884888m. Speed=5.004000m/h.</desc>
<speed>1.390000</speed>
</trkpt>
<trkpt lat="22.090641" lon="104.260475">
<ele>207.0</ele>
<time>2011-04-27T04:19:46Z</time>
<desc>lat.=22.090641, lon.=104.260475, Alt.=207.318481m. Speed=10.260000m/h.</desc>
<speed>2.850000</speed>
</trkpt>
<trkpt lat="22.091427" lon="104.261375">
<ele>212.4</ele>
<time>2011-04-27T04:20:51Z</time>
<desc>lat.=22.091427, lon.=104.261375, Alt.=210.263794m. Speed=5.004000m/h.</desc>
<speed>1.390000</speed>
</trkpt>
<trkpt lat="22.092823" lon="104.261772">
<ele>222.3</ele>
<time>2011-04-27T04:22:16Z</time>
<desc>lat.=22.092823, lon.=104.261772, Alt.=209.752075m. Speed=11.844000m/h.</desc>
<speed>3.290000</speed>
</trkpt>
<trkpt lat="22.093468" lon="104.262337">
<ele>219.9</ele>
<time>2011-04-27T04:24:06Z</time>
<desc>lat.=22.093468, lon.=104.262337, Alt.=209.990356m. Speed=13.356000m/h.</desc>
<speed>3.710000</speed>
</trkpt>
<trkpt lat="22.094158" lon="104.262383">
<ele>221.1</ele>
<time>2011-04-27T04:24:26Z</time>
<desc>lat.=22.094158, lon.=104.262383, Alt.=213.005981m. Speed=9.144000m/h.</desc>
<speed>2.540000</speed>
</trkpt>
<trkpt lat="22.094719" lon="104.262138">
<ele>224.3</ele>
<time>2011-04-27T04:24:51Z</time>
<desc>lat.=22.094719, lon.=104.262138, Alt.=219.439575m. Speed=7.920000m/h.</desc>
<speed>2.200000</speed>
</trkpt>
<trkpt lat="22.095158" lon="104.261246">
<ele>227.1</ele>
<time>2011-04-27T04:25:31Z</time>
<desc>lat.=22.095158, lon.=104.261246, Alt.=224.435669m. Speed=4.464000m/h.</desc>
<speed>1.240000</speed>
</trkpt>
<trkpt lat="22.096504" lon="104.260124">
<ele>240.1</ele>
<time>2011-04-27T04:27:36Z</time>
<desc>lat.=22.096504, lon.=104.260124, Alt.=238.904419m. Speed=2.592000m/h.</desc>
<speed>0.720000</speed>
</trkpt>
<trkpt lat="22.098022" lon="104.259743">
<ele>249.7</ele>
<time>2011-04-27T04:29:56Z</time>
<desc>lat.=22.098022, lon.=104.259743, Alt.=250.931763m. Speed=4.860000m/h.</desc>
<speed>1.350000</speed>
</trkpt>
<trkpt lat="22.100246" lon="104.258575">
<ele>275.3</ele>
<time>2011-04-27T04:33:36Z</time>
<desc>lat.=22.100246, lon.=104.258575, Alt.=283.590088m. Speed=5.508000m/h.</desc>
<speed>1.530000</speed>
</trkpt>
<trkpt lat="22.100460" lon="104.258667">
<ele>276.7</ele>
<time>2011-04-27T04:33:51Z</time>
<desc>lat.=22.100460, lon.=104.258667, Alt.=282.418213m. Speed=7.020000m/h.</desc>
<speed>1.950000</speed>
</trkpt>
<trkpt lat="22.100483" lon="104.258873">
<ele>282.5</ele>
<time>2011-04-27T04:34:06Z</time>
<desc>lat.=22.100483, lon.=104.258873, Alt.=285.996338m. Speed=4.572000m/h.</desc>
<speed>1.270000</speed>
</trkpt>
<trkpt lat="22.099249" lon="104.259926">
<ele>281.4</ele>
<time>2011-04-27T04:35:36Z</time>
<desc>lat.=22.099249, lon.=104.259926, Alt.=310.004150m. Speed=11.520000m/h.</desc>
<speed>3.200000</speed>
</trkpt>
<trkpt lat="22.099041" lon="104.260323">
<ele>282.0</ele>
<time>2011-04-27T04:35:51Z</time>
<desc>lat.=22.099041, lon.=104.260323, Alt.=295.449463m. Speed=10.728000m/h.</desc>
<speed>2.980000</speed>
</trkpt>
<trkpt lat="22.099262" lon="104.260712">
<ele>288.1</ele>
<time>2011-04-27T04:36:11Z</time>
<desc>lat.=22.099262, lon.=104.260712, Alt.=293.629150m. Speed=6.300000m/h.</desc>
<speed>1.750000</speed>
</trkpt>
<trkpt lat="22.100069" lon="104.261055">
<ele>292.0</ele>
<time>2011-04-27T04:37:16Z</time>
<desc>lat.=22.100069, lon.=104.261055, Alt.=288.949463m. Speed=0.576000m/h.</desc>
<speed>0.160000</speed>
</trkpt>
<trkpt lat="22.101583" lon="104.261078">
<ele>311.8</ele>
<time>2011-04-27T04:40:21Z</time>
<desc>lat.=22.101583, lon.=104.261078, Alt.=308.972900m. Speed=3.636000m/h.</desc>
<speed>1.010000</speed>
</trkpt>
<trkpt lat="22.102089" lon="104.260628">
<ele>321.5</ele>
<time>2011-04-27T04:41:16Z</time>
<desc>lat.=22.102089, lon.=104.260628, Alt.=318.738525m. Speed=3.996000m/h.</desc>
<speed>1.110000</speed>
</trkpt>
<trkpt lat="22.102501" lon="104.260895">
<ele>318.4</ele>
<time>2011-04-27T04:42:01Z</time>
<desc>lat.=22.102501, lon.=104.260895, Alt.=324.988525m. Speed=5.292000m/h.</desc>
<speed>1.470000</speed>
</trkpt>
<trkpt lat="22.103123" lon="104.260628">
<ele>337.9</ele>
<time>2011-04-27T04:43:01Z</time>
<desc>lat.=22.103123, lon.=104.260628, Alt.=328.590088m. Speed=5.184000m/h.</desc>
<speed>1.440000</speed>
</trkpt>
<trkpt lat="22.103758" lon="104.260994">
<ele>334.4</ele>
<time>2011-04-27T04:44:01Z</time>
<desc>lat.=22.103758, lon.=104.260994, Alt.=324.676025m. Speed=5.220000m/h.</desc>
<speed>1.450000</speed>
</trkpt>
<trkpt lat="22.104559" lon="104.260963">
<ele>357.8</ele>
<time>2011-04-27T04:45:06Z</time>
<desc>lat.=22.104559, lon.=104.260963, Alt.=339.574463m. Speed=5.220000m/h.</desc>
<speed>1.450000</speed>
</trkpt>
<trkpt lat="22.104580" lon="104.260841">
<ele>359.5</ele>
<time>2011-04-27T04:46:41Z</time>
<desc>lat.=22.104580, lon.=104.260841, Alt.=359.019775m. Speed=0.252000m/h.</desc>
<speed>0.070000</speed>
</trkpt>
<trkpt lat="22.105103" lon="104.260674">
<ele>368.3</ele>
<time>2011-04-27T04:47:46Z</time>
<desc>lat.=22.105103, lon.=104.260674, Alt.=363.238525m. Speed=8.676000m/h.</desc>
<speed>2.410000</speed>
</trkpt>
<trkpt lat="22.105579" lon="104.260719">
<ele>357.2</ele>
<time>2011-04-27T04:48:01Z</time>
<desc>lat.=22.105579, lon.=104.260719, Alt.=348.636963m. Speed=19.836000m/h.</desc>
<speed>5.510000</speed>
</trkpt>
<trkpt lat="22.106825" lon="104.260040">
<ele>336.8</ele>
<time>2011-04-27T04:48:21Z</time>
<desc>lat.=22.106825, lon.=104.260040, Alt.=339.176025m. Speed=24.587999m/h.</desc>
<speed>6.830000</speed>
</trkpt>
<trkpt lat="22.107388" lon="104.259346">
<ele>337.5</ele>
<time>2011-04-27T04:48:36Z</time>
<desc>lat.=22.107388, lon.=104.259346, Alt.=330.394775m. Speed=24.516001m/h.</desc>
<speed>6.810000</speed>
</trkpt>
<trkpt lat="22.108084" lon="104.259117">
<ele>333.8</ele>
<time>2011-04-27T04:48:46Z</time>
<desc>lat.=22.108084, lon.=104.259117, Alt.=326.644775m. Speed=29.988001m/h.</desc>
<speed>8.330000</speed>
</trkpt>
<trkpt lat="22.108486" lon="104.259186">
<ele>325.9</ele>
<time>2011-04-27T04:48:51Z</time>
<desc>lat.=22.108486, lon.=104.259186, Alt.=322.222900m. Speed=30.563999m/h.</desc>
<speed>8.490000</speed>
</trkpt>
<trkpt lat="22.109221" lon="104.259804">
<ele>314.7</ele>
<time>2011-04-27T04:49:01Z</time>
<desc>lat.=22.109221, lon.=104.259804, Alt.=315.777588m. Speed=38.088001m/h.</desc>
<speed>10.580000</speed>
</trkpt>
<trkpt lat="22.109705" lon="104.259911">
<ele>316.3</ele>
<time>2011-04-27T04:49:06Z</time>
<desc>lat.=22.109705, lon.=104.259911, Alt.=314.457275m. Speed=38.124001m/h.</desc>
<speed>10.590000</speed>
</trkpt>
<trkpt lat="22.110609" lon="104.259651">
<ele>314.4</ele>
<time>2011-04-27T04:49:16Z</time>
<desc>lat.=22.110609, lon.=104.259651, Alt.=310.347900m. Speed=37.368000m/h.</desc>
<speed>10.380000</speed>
</trkpt>
<trkpt lat="22.112165" lon="104.260040">
<ele>302.3</ele>
<time>2011-04-27T04:49:31Z</time>
<desc>lat.=22.112165, lon.=104.260040, Alt.=300.910400m. Speed=43.056000m/h.</desc>
<speed>11.960000</speed>
</trkpt>
<trkpt lat="22.113607" lon="104.259544">
<ele>298.0</ele>
<time>2011-04-27T04:49:46Z</time>
<desc>lat.=22.113607, lon.=104.259544, Alt.=293.246338m. Speed=37.043999m/h.</desc>
<speed>10.290000</speed>
</trkpt>
<trkpt lat="22.113958" lon="104.259621">
<ele>295.1</ele>
<time>2011-04-27T04:49:51Z</time>
<desc>lat.=22.113958, lon.=104.259621, Alt.=290.402588m. Speed=29.483999m/h.</desc>
<speed>8.190000</speed>
</trkpt>
<trkpt lat="22.114122" lon="104.259995">
<ele>288.2</ele>
<time>2011-04-27T04:49:56Z</time>
<desc>lat.=22.114122, lon.=104.259995, Alt.=287.316650m. Speed=35.748001m/h.</desc>
<speed>9.930000</speed>
</trkpt>
<trkpt lat="22.113937" lon="104.261032">
<ele>277.9</ele>
<time>2011-04-27T04:50:06Z</time>
<desc>lat.=22.113937, lon.=104.261032, Alt.=282.207275m. Speed=36.251999m/h.</desc>
<speed>10.070000</speed>
</trkpt>
<trkpt lat="22.114359" lon="104.262474">
<ele>275.7</ele>
<time>2011-04-27T04:50:21Z</time>
<desc>lat.=22.114359, lon.=104.262474, Alt.=274.035400m. Speed=35.495998m/h.</desc>
<speed>9.860000</speed>
</trkpt>
<trkpt lat="22.115410" lon="104.263565">
<ele>262.4</ele>
<time>2011-04-27T04:52:01Z</time>
<desc>lat.=22.115410, lon.=104.263565, Alt.=261.379150m. Speed=0.144000m/h.</desc>
<speed>0.040000</speed>
</trkpt>
<trkpt lat="22.116127" lon="104.263985">
<ele>249.5</ele>
<time>2011-04-27T04:54:01Z</time>
<desc>lat.=22.116127, lon.=104.263985, Alt.=252.771606m. Speed=18.504000m/h.</desc>
<speed>5.140000</speed>
</trkpt>
<trkpt lat="22.115902" lon="104.264664">
<ele>244.2</ele>
<time>2011-04-27T04:54:21Z</time>
<desc>lat.=22.115902, lon.=104.264664, Alt.=247.478638m. Speed=15.408000m/h.</desc>
<speed>4.280000</speed>
</trkpt>
<trkpt lat="22.115961" lon="104.265205">
<ele>235.3</ele>
<time>2011-04-27T04:54:41Z</time>
<desc>lat.=22.115961, lon.=104.265205, Alt.=244.994263m. Speed=15.696000m/h.</desc>
<speed>4.360000</speed>
</trkpt>
<trkpt lat="22.116501" lon="104.265800">
<ele>232.7</ele>
<time>2011-04-27T04:54:56Z</time>
<desc>lat.=22.116501, lon.=104.265800, Alt.=239.759888m. Speed=15.480000m/h.</desc>
<speed>4.300000</speed>
</trkpt>
<trkpt lat="22.117104" lon="104.266029">
<ele>229.9</ele>
<time>2011-04-27T04:55:26Z</time>
<desc>lat.=22.117104, lon.=104.266029, Alt.=234.244263m. Speed=8.892000m/h.</desc>
<speed>2.470000</speed>
</trkpt>
<trkpt lat="22.117548" lon="104.266571">
<ele>229.0</ele>
<time>2011-04-27T04:57:46Z</time>
<desc>lat.=22.117548, lon.=104.266571, Alt.=228.998169m. Speed=20.736000m/h.</desc>
<speed>5.760000</speed>
</trkpt>
<trkpt lat="22.118076" lon="104.266930">
<ele>222.9</ele>
<time>2011-04-27T04:57:56Z</time>
<desc>lat.=22.118076, lon.=104.266930, Alt.=225.013794m. Speed=26.712000m/h.</desc>
<speed>7.420000</speed>
</trkpt>
<trkpt lat="22.118383" lon="104.268082">
<ele>213.7</ele>
<time>2011-04-27T04:58:16Z</time>
<desc>lat.=22.118383, lon.=104.268082, Alt.=223.810669m. Speed=20.520000m/h.</desc>
<speed>5.700000</speed>
</trkpt>
<trkpt lat="22.119173" lon="104.268364">
<ele>210.0</ele>
<time>2011-04-27T04:58:31Z</time>
<desc>lat.=22.119173, lon.=104.268364, Alt.=219.740356m. Speed=27.540001m/h.</desc>
<speed>7.650000</speed>
</trkpt>
<trkpt lat="22.119867" lon="104.269569">
<ele>211.2</ele>
<time>2011-04-27T04:58:46Z</time>
<desc>lat.=22.119867, lon.=104.269569, Alt.=207.291138m. Speed=35.891998m/h.</desc>
<speed>9.970000</speed>
</trkpt>
<trkpt lat="22.120335" lon="104.269753">
<ele>204.9</ele>
<time>2011-04-27T04:58:51Z</time>
<desc>lat.=22.120335, lon.=104.269753, Alt.=201.287231m. Speed=36.972000m/h.</desc>
<speed>10.270000</speed>
</trkpt>
<trkpt lat="22.121120" lon="104.269455">
<ele>196.5</ele>
<time>2011-04-27T04:59:01Z</time>
<desc>lat.=22.121120, lon.=104.269455, Alt.=194.017700m. Speed=21.059999m/h.</desc>
<speed>5.850000</speed>
</trkpt>
<trkpt lat="22.121698" lon="104.268822">
<ele>202.5</ele>
<time>2011-04-27T04:59:16Z</time>
<desc>lat.=22.121698, lon.=104.268822, Alt.=188.588013m. Speed=22.608000m/h.</desc>
<speed>6.280000</speed>
</trkpt>
<trkpt lat="22.122171" lon="104.268677">
<ele>192.3</ele>
<time>2011-04-27T04:59:26Z</time>
<desc>lat.=22.122171, lon.=104.268677, Alt.=184.892700m. Speed=18.504000m/h.</desc>
<speed>5.140000</speed>
</trkpt>
<trkpt lat="22.122259" lon="104.268860">
<ele>187.6</ele>
<time>2011-04-27T04:59:31Z</time>
<desc>lat.=22.122259, lon.=104.268860, Alt.=185.435669m. Speed=15.192000m/h.</desc>
<speed>4.220000</speed>
</trkpt>
<trkpt lat="22.122049" lon="104.269386">
<ele>175.2</ele>
<time>2011-04-27T04:59:41Z</time>
<desc>lat.=22.122049, lon.=104.269386, Alt.=185.076294m. Speed=26.747999m/h.</desc>
<speed>7.430000</speed>
</trkpt>
<trkpt lat="22.122211" lon="104.270027">
<ele>173.5</ele>
<time>2011-04-27T04:59:51Z</time>
<desc>lat.=22.122211, lon.=104.270027, Alt.=177.400513m. Speed=21.275999m/h.</desc>
<speed>5.910000</speed>
</trkpt>
<trkpt lat="22.122417" lon="104.270119">
<ele>175.6</ele>
<time>2011-04-27T04:59:56Z</time>
<desc>lat.=22.122417, lon.=104.270119, Alt.=175.127075m. Speed=13.968000m/h.</desc>
<speed>3.880000</speed>
</trkpt>
<trkpt lat="22.123131" lon="104.269913">
<ele>173.3</ele>
<time>2011-04-27T05:00:11Z</time>
<desc>lat.=22.123131, lon.=104.269913, Alt.=168.228638m. Speed=22.931999m/h.</desc>
<speed>6.370000</speed>
</trkpt>
<trkpt lat="22.123327" lon="104.270126">
<ele>171.0</ele>
<time>2011-04-27T05:00:16Z</time>
<desc>lat.=22.123327, lon.=104.270126, Alt.=167.638794m. Speed=17.496000m/h.</desc>
<speed>4.860000</speed>
</trkpt>
<trkpt lat="22.122522" lon="104.271919">
<ele>161.5</ele>
<time>2011-04-27T05:01:46Z</time>
<desc>lat.=22.122522, lon.=104.271919, Alt.=158.170044m. Speed=12.096000m/h.</desc>
<speed>3.360000</speed>
</trkpt>
<trkpt lat="22.121660" lon="104.272552">
<ele>155.4</ele>
<time>2011-04-27T05:02:56Z</time>
<desc>lat.=22.121660, lon.=104.272552, Alt.=157.752075m. Speed=10.260000m/h.</desc>
<speed>2.850000</speed>
</trkpt>
<trkpt lat="22.121643" lon="104.272934">
<ele>148.0</ele>
<time>2011-04-27T05:03:06Z</time>
<desc>lat.=22.121643, lon.=104.272934, Alt.=157.822388m. Speed=18.216000m/h.</desc>
<speed>5.060000</speed>
</trkpt>
<trkpt lat="22.123337" lon="104.274498">
<ele>130.9</ele>
<time>2011-04-27T05:03:41Z</time>
<desc>lat.=22.123337, lon.=104.274498, Alt.=135.681763m. Speed=24.156000m/h.</desc>
<speed>6.710000</speed>
</trkpt>
<trkpt lat="22.123857" lon="104.273964">
<ele>136.2</ele>
<time>2011-04-27T05:03:56Z</time>
<desc>lat.=22.123857, lon.=104.273964, Alt.=127.555725m. Speed=11.340000m/h.</desc>
<speed>3.150000</speed>
</trkpt>
<trkpt lat="22.124624" lon="104.274384">
<ele>127.3</ele>
<time>2011-04-27T05:04:11Z</time>
<desc>lat.=22.124624, lon.=104.274384, Alt.=118.674866m. Speed=29.124001m/h.</desc>
<speed>8.090000</speed>
</trkpt>
<trkpt lat="22.125303" lon="104.274361">
<ele>122.9</ele>
<time>2011-04-27T05:04:26Z</time>
<desc>lat.=22.125303, lon.=104.274361, Alt.=113.495178m. Speed=6.768000m/h.</desc>
<speed>1.880000</speed>
</trkpt>
<trkpt lat="22.125776" lon="104.274544">
<ele>118.8</ele>
<time>2011-04-27T05:10:41Z</time>
<desc>lat.=22.125776, lon.=104.274544, Alt.=105.079163m. Speed=11.916000m/h.</desc>
<speed>3.310000</speed>
</trkpt>
<trkpt lat="22.126694" lon="104.275505">
<ele>108.4</ele>
<time>2011-04-27T05:11:11Z</time>
<desc>lat.=22.126694, lon.=104.275505, Alt.=99.045959m. Speed=18.719999m/h.</desc>
<speed>5.200000</speed>
</trkpt>
<trkpt lat="22.127394" lon="104.276939">
<ele>108.5</ele>
<time>2011-04-27T05:11:56Z</time>
<desc>lat.=22.127394, lon.=104.276939, Alt.=99.110413m. Speed=7.992000m/h.</desc>
<speed>2.220000</speed>
</trkpt>
<trkpt lat="22.128380" lon="104.277077">
<ele>106.1</ele>
<time>2011-04-27T05:12:26Z</time>
<desc>lat.=22.128380, lon.=104.277077, Alt.=97.745178m. Speed=12.636000m/h.</desc>
<speed>3.510000</speed>
</trkpt>
<trkpt lat="22.128695" lon="104.277298">
<ele>103.5</ele>
<time>2011-04-27T05:12:41Z</time>
<desc>lat.=22.128695, lon.=104.277298, Alt.=96.870178m. Speed=10.584000m/h.</desc>
<speed>2.940000</speed>
</trkpt>
<trkpt lat="22.128841" lon="104.277641">
<ele>103.9</ele>
<time>2011-04-27T05:13:36Z</time>
<desc>lat.=22.128841, lon.=104.277641, Alt.=93.788147m. Speed=13.608000m/h.</desc>
<speed>3.780000</speed>
</trkpt>
<trkpt lat="22.128860" lon="104.278496">
<ele>117.5</ele>
<time>2011-04-27T05:13:56Z</time>
<desc>lat.=22.128860, lon.=104.278496, Alt.=95.485413m. Speed=16.020000m/h.</desc>
<speed>4.450000</speed>
</trkpt>
<trkpt lat="22.130110" lon="104.279755">
<ele>102.5</ele>
<time>2011-04-27T05:14:41Z</time>
<desc>lat.=22.130110, lon.=104.279755, Alt.=102.040100m. Speed=9.324000m/h.</desc>
<speed>2.590000</speed>
</trkpt>
<trkpt lat="22.130859" lon="104.281258">
<ele>106.7</ele>
<time>2011-04-27T05:16:11Z</time>
<desc>lat.=22.130859, lon.=104.281258, Alt.=109.616272m. Speed=8.316000m/h.</desc>
<speed>2.310000</speed>
</trkpt>
<trkpt lat="22.131025" lon="104.282051">
<ele>121.2</ele>
<time>2011-04-27T05:17:51Z</time>
<desc>lat.=22.131025, lon.=104.282051, Alt.=109.971741m. Speed=0.720000m/h.</desc>
<speed>0.200000</speed>
</trkpt>
<trkpt lat="22.132444" lon="104.283600">
<ele>102.6</ele>
<time>2011-04-27T05:24:01Z</time>
<desc>lat.=22.132444, lon.=104.283600, Alt.=115.458069m. Speed=1.152000m/h.</desc>
<speed>0.320000</speed>
</trkpt>
<trkpt lat="22.132523" lon="104.284401">
<ele>101.0</ele>
<time>2011-04-27T05:24:56Z</time>
<desc>lat.=22.132523, lon.=104.284401, Alt.=113.085022m. Speed=2.592000m/h.</desc>
<speed>0.720000</speed>
</trkpt>
<trkpt lat="22.132782" lon="104.284904">
<ele>98.2</ele>
<time>2011-04-27T05:25:26Z</time>
<desc>lat.=22.132782, lon.=104.284904, Alt.=117.077209m. Speed=6.300000m/h.</desc>
<speed>1.750000</speed>
</trkpt>
<trkpt lat="22.133976" lon="104.285904">
<ele>110.2</ele>
<time>2011-04-27T05:26:31Z</time>
<desc>lat.=22.133976, lon.=104.285904, Alt.=108.354553m. Speed=19.224001m/h.</desc>
<speed>5.340000</speed>
</trkpt>
<trkpt lat="22.134205" lon="104.286339">
<ele>99.4</ele>
<time>2011-04-27T05:26:41Z</time>
<desc>lat.=22.134205, lon.=104.286339, Alt.=102.237366m. Speed=19.872000m/h.</desc>
<speed>5.520000</speed>
</trkpt>
<trkpt lat="22.134071" lon="104.286926">
<ele>95.2</ele>
<time>2011-04-27T05:26:51Z</time>
<desc>lat.=22.134071, lon.=104.286926, Alt.=99.544006m. Speed=22.716000m/h.</desc>
<speed>6.310000</speed>
</trkpt>
<trkpt lat="22.132780" lon="104.288521">
<ele>101.1</ele>
<time>2011-04-27T05:28:16Z</time>
<desc>lat.=22.132780, lon.=104.288521, Alt.=102.389709m. Speed=8.388000m/h.</desc>
<speed>2.330000</speed>
</trkpt>
<trkpt lat="22.132729" lon="104.289558">
<ele>108.0</ele>
<time>2011-04-27T05:28:51Z</time>
<desc>lat.=22.132729, lon.=104.289558, Alt.=114.487366m. Speed=11.556000m/h.</desc>
<speed>3.210000</speed>
</trkpt>
<trkpt lat="22.132381" lon="104.290550">
<ele>97.6</ele>
<time>2011-04-27T05:29:26Z</time>
<desc>lat.=22.132381, lon.=104.290550, Alt.=124.036194m. Speed=6.336000m/h.</desc>
<speed>1.760000</speed>
</trkpt>
<trkpt lat="22.132692" lon="104.290993">
<ele>108.3</ele>
<time>2011-04-27T05:29:46Z</time>
<desc>lat.=22.132692, lon.=104.290993, Alt.=111.165100m. Speed=9.360000m/h.</desc>
<speed>2.600000</speed>
</trkpt>
<trkpt lat="22.132616" lon="104.291626">
<ele>107.8</ele>
<time>2011-04-27T05:30:16Z</time>
<desc>lat.=22.132616, lon.=104.291626, Alt.=111.008850m. Speed=8.856000m/h.</desc>
<speed>2.460000</speed>
</trkpt>
<trkpt lat="22.132965" lon="104.292725">
<ele>108.8</ele>
<time>2011-04-27T05:30:56Z</time>
<desc>lat.=22.132965, lon.=104.292725, Alt.=114.594788m. Speed=17.172001m/h.</desc>
<speed>4.770000</speed>
</trkpt>
<trkpt lat="22.133026" lon="104.294456">
<ele>111.2</ele>
<time>2011-04-27T05:32:01Z</time>
<desc>lat.=22.133026, lon.=104.294456, Alt.=113.118225m. Speed=3.528000m/h.</desc>
<speed>0.980000</speed>
</trkpt>
<trkpt lat="22.133247" lon="104.295403">
<ele>116.4</ele>
<time>2011-04-27T05:33:16Z</time>
<desc>lat.=22.133247, lon.=104.295403, Alt.=130.853638m. Speed=3.060000m/h.</desc>
<speed>0.850000</speed>
</trkpt>
<trkpt lat="22.133564" lon="104.295914">
<ele>127.7</ele>
<time>2011-04-27T05:34:46Z</time>
<desc>lat.=22.133564, lon.=104.295914, Alt.=126.145569m. Speed=3.600000m/h.</desc>
<speed>1.000000</speed>
</trkpt>
<trkpt lat="22.133400" lon="104.296631">
<ele>134.7</ele>
<time>2011-04-27T05:35:41Z</time>
<desc>lat.=22.133400, lon.=104.296631, Alt.=139.896606m. Speed=4.644000m/h.</desc>
<speed>1.290000</speed>
</trkpt>
<trkpt lat="22.134272" lon="104.297607">
<ele>149.5</ele>
<time>2011-04-27T05:37:21Z</time>
<desc>lat.=22.134272, lon.=104.297607, Alt.=140.259888m. Speed=6.552000m/h.</desc>
<speed>1.820000</speed>
</trkpt>
<trkpt lat="22.134176" lon="104.298058">
<ele>152.2</ele>
<time>2011-04-27T05:37:56Z</time>
<desc>lat.=22.134176, lon.=104.298058, Alt.=151.486450m. Speed=5.688000m/h.</desc>
<speed>1.580000</speed>
</trkpt>
<trkpt lat="22.134300" lon="104.298744">
<ele>160.8</ele>
<time>2011-04-27T05:39:31Z</time>
<desc>lat.=22.134300, lon.=104.298744, Alt.=171.994263m. Speed=3.384000m/h.</desc>
<speed>0.940000</speed>
</trkpt>
<trkpt lat="22.133869" lon="104.299637">
<ele>164.8</ele>
<time>2011-04-27T05:40:46Z</time>
<desc>lat.=22.133869, lon.=104.299637, Alt.=188.142700m. Speed=5.148000m/h.</desc>
<speed>1.430000</speed>
</trkpt>
<trkpt lat="22.134142" lon="104.300026">
<ele>174.6</ele>
<time>2011-04-27T05:41:11Z</time>
<desc>lat.=22.134142, lon.=104.300026, Alt.=191.841919m. Speed=6.732000m/h.</desc>
<speed>1.870000</speed>
</trkpt>
<trkpt lat="22.134756" lon="104.300400">
<ele>175.2</ele>
<time>2011-04-27T05:42:16Z</time>
<desc>lat.=22.134756, lon.=104.300400, Alt.=198.232544m. Speed=0.180000m/h.</desc>
<speed>0.050000</speed>
</trkpt>
<trkpt lat="22.135317" lon="104.300209">
<ele>182.9</ele>
<time>2011-04-27T05:43:56Z</time>
<desc>lat.=22.135317, lon.=104.300209, Alt.=199.029419m. Speed=4.392000m/h.</desc>
<speed>1.220000</speed>
</trkpt>
<trkpt lat="22.135889" lon="104.300728">
<ele>189.1</ele>
<time>2011-04-27T05:44:56Z</time>
<desc>lat.=22.135889, lon.=104.300728, Alt.=192.810669m. Speed=6.840000m/h.</desc>
<speed>1.900000</speed>
</trkpt>
<trkpt lat="22.136402" lon="104.300728">
<ele>193.0</ele>
<time>2011-04-27T05:45:21Z</time>
<desc>lat.=22.136402, lon.=104.300728, Alt.=194.545044m. Speed=5.940000m/h.</desc>
<speed>1.650000</speed>
</trkpt>
<trkpt lat="22.136677" lon="104.301064">
<ele>192.4</ele>
<time>2011-04-27T05:45:51Z</time>
<desc>lat.=22.136677, lon.=104.301064, Alt.=193.232544m. Speed=6.048000m/h.</desc>
<speed>1.680000</speed>
</trkpt>
<trkpt lat="22.137302" lon="104.301399">
<ele>202.9</ele>
<time>2011-04-27T05:46:36Z</time>
<desc>lat.=22.137302, lon.=104.301399, Alt.=192.193481m. Speed=6.984000m/h.</desc>
<speed>1.940000</speed>
</trkpt>
<trkpt lat="22.137934" lon="104.301285">
<ele>207.0</ele>
<time>2011-04-27T05:47:21Z</time>
<desc>lat.=22.137934, lon.=104.301285, Alt.=197.865356m. Speed=4.788000m/h.</desc>
<speed>1.330000</speed>
</trkpt>
<trkpt lat="22.138393" lon="104.301735">
<ele>213.4</ele>
<time>2011-04-27T05:48:51Z</time>
<desc>lat.=22.138393, lon.=104.301735, Alt.=204.076294m. Speed=7.920000m/h.</desc>
<speed>2.200000</speed>
</trkpt>
<trkpt lat="22.138189" lon="104.302460">
<ele>218.0</ele>
<time>2011-04-27T05:50:31Z</time>
<desc>lat.=22.138189, lon.=104.302460, Alt.=212.838013m. Speed=2.088000m/h.</desc>
<speed>0.580000</speed>
</trkpt>
<trkpt lat="22.138727" lon="104.303123">
<ele>220.3</ele>
<time>2011-04-27T05:51:36Z</time>
<desc>lat.=22.138727, lon.=104.303123, Alt.=217.338013m. Speed=5.472000m/h.</desc>
<speed>1.520000</speed>
</trkpt>
<trkpt lat="22.139835" lon="104.303604">
<ele>240.7</ele>
<time>2011-04-27T05:53:11Z</time>
<desc>lat.=22.139835, lon.=104.303604, Alt.=228.306763m. Speed=6.120000m/h.</desc>
<speed>1.700000</speed>
</trkpt>
<trkpt lat="22.140150" lon="104.304001">
<ele>247.4</ele>
<time>2011-04-27T05:53:46Z</time>
<desc>lat.=22.140150, lon.=104.304001, Alt.=237.216919m. Speed=5.184000m/h.</desc>
<speed>1.440000</speed>
</trkpt>
<trkpt lat="22.139956" lon="104.304619">
<ele>255.4</ele>
<time>2011-04-27T06:25:21Z</time>
<desc>lat.=22.139956, lon.=104.304619, Alt.=232.556763m. Speed=4.824000m/h.</desc>
<speed>1.340000</speed>
</trkpt>
<trkpt lat="22.139294" lon="104.305206">
<ele>259.0</ele>
<time>2011-04-27T06:26:21Z</time>
<desc>lat.=22.139294, lon.=104.305206, Alt.=251.427856m. Speed=5.112000m/h.</desc>
<speed>1.420000</speed>
</trkpt>
<trkpt lat="22.139414" lon="104.305878">
<ele>263.9</ele>
<time>2011-04-27T06:27:06Z</time>
<desc>lat.=22.139414, lon.=104.305878, Alt.=270.918213m. Speed=4.392000m/h.</desc>
<speed>1.220000</speed>
</trkpt>
<trkpt lat="22.139282" lon="104.306854">
<ele>273.4</ele>
<time>2011-04-27T06:28:16Z</time>
<desc>lat.=22.139282, lon.=104.306854, Alt.=294.144775m. Speed=6.948000m/h.</desc>
<speed>1.930000</speed>
</trkpt>
<trkpt lat="22.139376" lon="104.307182">
<ele>274.5</ele>
<time>2011-04-27T06:28:41Z</time>
<desc>lat.=22.139376, lon.=104.307182, Alt.=297.160400m. Speed=4.284000m/h.</desc>
<speed>1.190000</speed>
</trkpt>
<trkpt lat="22.140270" lon="104.307800">
<ele>291.5</ele>
<time>2011-04-27T06:29:56Z</time>
<desc>lat.=22.140270, lon.=104.307800, Alt.=316.191650m. Speed=4.248000m/h.</desc>
<speed>1.180000</speed>
</trkpt>
<trkpt lat="22.139978" lon="104.309532">
<ele>305.8</ele>
<time>2011-04-27T06:31:51Z</time>
<desc>lat.=22.139978, lon.=104.309532, Alt.=329.207275m. Speed=6.048000m/h.</desc>
<speed>1.680000</speed>
</trkpt>
<trkpt lat="22.140793" lon="104.310226">
<ele>328.4</ele>
<time>2011-04-27T06:33:06Z</time>
<desc>lat.=22.140793, lon.=104.310226, Alt.=343.277588m. Speed=5.976000m/h.</desc>
<speed>1.660000</speed>
</trkpt>
<trkpt lat="22.139584" lon="104.311417">
<ele>333.3</ele>
<time>2011-04-27T06:35:36Z</time>
<desc>lat.=22.139584, lon.=104.311417, Alt.=366.801025m. Speed=0.252000m/h.</desc>
<speed>0.070000</speed>
</trkpt>
<trkpt lat="22.139547" lon="104.311188">
<ele>324.1</ele>
<time>2011-04-27T06:36:06Z</time>
<desc>lat.=22.139547, lon.=104.311188, Alt.=366.363525m. Speed=0.432000m/h.</desc>
<speed>0.120000</speed>
</trkpt>
<trkpt lat="22.139446" lon="104.311722">
<ele>341.1</ele>
<time>2011-04-27T06:36:51Z</time>
<desc>lat.=22.139446, lon.=104.311722, Alt.=361.426025m. Speed=6.408000m/h.</desc>
<speed>1.780000</speed>
</trkpt>
<trkpt lat="22.138721" lon="104.312706">
<ele>347.0</ele>
<time>2011-04-27T06:38:11Z</time>
<desc>lat.=22.138721, lon.=104.312706, Alt.=359.316650m. Speed=7.704000m/h.</desc>
<speed>2.140000</speed>
</trkpt>
<trkpt lat="22.138859" lon="104.314301">
<ele>357.0</ele>
<time>2011-04-27T06:39:51Z</time>
<desc>lat.=22.138859, lon.=104.314301, Alt.=362.754150m. Speed=6.696000m/h.</desc>
<speed>1.860000</speed>
</trkpt>
<trkpt lat="22.138515" lon="104.314819">
<ele>358.2</ele>
<time>2011-04-27T06:40:26Z</time>
<desc>lat.=22.138515, lon.=104.314819, Alt.=365.527588m. Speed=5.436000m/h.</desc>
<speed>1.510000</speed>
</trkpt>
<trkpt lat="22.138538" lon="104.315475">
<ele>372.3</ele>
<time>2011-04-27T06:41:06Z</time>
<desc>lat.=22.138538, lon.=104.315475, Alt.=357.644775m. Speed=4.788000m/h.</desc>
<speed>1.330000</speed>
</trkpt>
<trkpt lat="22.137934" lon="104.315582">
<ele>368.3</ele>
<time>2011-04-27T06:41:46Z</time>
<desc>lat.=22.137934, lon.=104.315582, Alt.=354.347900m. Speed=5.832000m/h.</desc>
<speed>1.620000</speed>
</trkpt>
<trkpt lat="22.137728" lon="104.315865">
<ele>370.5</ele>
<time>2011-04-27T06:42:06Z</time>
<desc>lat.=22.137728, lon.=104.315865, Alt.=352.793213m. Speed=5.328000m/h.</desc>
<speed>1.480000</speed>
</trkpt>
<trkpt lat="22.137989" lon="104.316498">
<ele>384.2</ele>
<time>2011-04-27T06:42:46Z</time>
<desc>lat.=22.137989, lon.=104.316498, Alt.=353.199463m. Speed=6.084000m/h.</desc>
<speed>1.690000</speed>
</trkpt>
<trkpt lat="22.137589" lon="104.316933">
<ele>382.0</ele>
<time>2011-04-27T06:43:21Z</time>
<desc>lat.=22.137589, lon.=104.316933, Alt.=368.285400m. Speed=6.948000m/h.</desc>
<speed>1.930000</speed>
</trkpt>
<trkpt lat="22.137684" lon="104.317871">
<ele>399.3</ele>
<time>2011-04-27T06:44:16Z</time>
<desc>lat.=22.137684, lon.=104.317871, Alt.=374.066650m. Speed=4.284000m/h.</desc>
<speed>1.190000</speed>
</trkpt>
<trkpt lat="22.136982" lon="104.318321">
<ele>404.5</ele>
<time>2011-04-27T06:45:41Z</time>
<desc>lat.=22.136982, lon.=104.318321, Alt.=379.418213m. Speed=5.472000m/h.</desc>
<speed>1.520000</speed>
</trkpt>
<trkpt lat="22.136700" lon="104.319008">
<ele>416.4</ele>
<time>2011-04-27T06:49:01Z</time>
<desc>lat.=22.136700, lon.=104.319008, Alt.=383.019775m. Speed=0.972000m/h.</desc>
<speed>0.270000</speed>
</trkpt>
<trkpt lat="22.136148" lon="104.319481">
<ele>426.8</ele>
<time>2011-04-27T06:50:01Z</time>
<desc>lat.=22.136148, lon.=104.319481, Alt.=399.957275m. Speed=5.328000m/h.</desc>
<speed>1.480000</speed>
</trkpt>
<trkpt lat="22.136469" lon="104.320053">
<ele>426.4</ele>
<time>2011-04-27T06:50:46Z</time>
<desc>lat.=22.136469, lon.=104.320053, Alt.=429.957275m. Speed=1.044000m/h.</desc>
<speed>0.290000</speed>
</trkpt>
<trkpt lat="22.136524" lon="104.319954">
<ele>421.6</ele>
<time>2011-04-27T06:53:41Z</time>
<desc>lat.=22.136524, lon.=104.319954, Alt.=431.816650m. Speed=0.144000m/h.</desc>
<speed>0.040000</speed>
</trkpt>
<trkpt lat="22.136520" lon="104.320076">
<ele>424.7</ele>
<time>2011-04-27T07:01:26Z</time>
<desc>lat.=22.136520, lon.=104.320076, Alt.=431.371338m. Speed=0.072000m/h.</desc>
<speed>0.020000</speed>
</trkpt>
<trkpt lat="22.136566" lon="104.319969">
<ele>421.2</ele>
<time>2011-04-27T07:20:41Z</time>
<desc>lat.=22.136566, lon.=104.319969, Alt.=426.543213m. Speed=0.576000m/h.</desc>
<speed>0.160000</speed>
</trkpt>
<trkpt lat="22.137030" lon="104.320091">
<ele>411.8</ele>
<time>2011-04-27T07:21:26Z</time>
<desc>lat.=22.137030, lon.=104.320091, Alt.=423.527588m. Speed=3.960000m/h.</desc>
<speed>1.100000</speed>
</trkpt>
<trkpt lat="22.137007" lon="104.320808">
<ele>394.3</ele>
<time>2011-04-27T07:21:46Z</time>
<desc>lat.=22.137007, lon.=104.320808, Alt.=410.152588m. Speed=23.112000m/h.</desc>
<speed>6.420000</speed>
</trkpt>
<trkpt lat="22.137526" lon="104.321236">
<ele>392.9</ele>
<time>2011-04-27T07:21:56Z</time>
<desc>lat.=22.137526, lon.=104.321236, Alt.=403.527588m. Speed=23.219999m/h.</desc>
<speed>6.450000</speed>
</trkpt>
<trkpt lat="22.137564" lon="104.321526">
<ele>390.4</ele>
<time>2011-04-27T07:22:01Z</time>
<desc>lat.=22.137564, lon.=104.321526, Alt.=399.402588m. Speed=22.752001m/h.</desc>
<speed>6.320000</speed>
</trkpt>
<trkpt lat="22.137217" lon="104.322357">
<ele>379.8</ele>
<time>2011-04-27T07:22:16Z</time>
<desc>lat.=22.137217, lon.=104.322357, Alt.=387.824463m. Speed=20.664000m/h.</desc>
<speed>5.740000</speed>
</trkpt>
<trkpt lat="22.137281" lon="104.322586">
<ele>380.3</ele>
<time>2011-04-27T07:22:21Z</time>
<desc>lat.=22.137281, lon.=104.322586, Alt.=383.347900m. Speed=20.483999m/h.</desc>
<speed>5.690000</speed>
</trkpt>
<trkpt lat="22.137512" lon="104.322655">
<ele>381.9</ele>
<time>2011-04-27T07:22:26Z</time>
<desc>lat.=22.137512, lon.=104.322655, Alt.=382.011963m. Speed=21.024000m/h.</desc>
<speed>5.840000</speed>
</trkpt>
<trkpt lat="22.139122" lon="104.321655">
<ele>370.3</ele>
<time>2011-04-27T07:22:56Z</time>
<desc>lat.=22.139122, lon.=104.321655, Alt.=362.316650m. Speed=7.344000m/h.</desc>
<speed>2.040000</speed>
</trkpt>
<trkpt lat="22.140171" lon="104.322113">
<ele>350.4</ele>
<time>2011-04-27T07:23:16Z</time>
<desc>lat.=22.140171, lon.=104.322113, Alt.=351.301025m. Speed=24.336000m/h.</desc>
<speed>6.760000</speed>
</trkpt>
<trkpt lat="22.140507" lon="104.322105">
<ele>341.8</ele>
<time>2011-04-27T07:23:21Z</time>
<desc>lat.=22.140507, lon.=104.322105, Alt.=348.426025m. Speed=20.124001m/h.</desc>
<speed>5.590000</speed>
</trkpt>
<trkpt lat="22.140657" lon="104.321953">
<ele>343.3</ele>
<time>2011-04-27T07:23:26Z</time>
<desc>lat.=22.140657, lon.=104.321953, Alt.=345.957275m. Speed=17.280001m/h.</desc>
<speed>4.800000</speed>
</trkpt>
<trkpt lat="22.140728" lon="104.321198">
<ele>340.2</ele>
<time>2011-04-27T07:23:41Z</time>
<desc>lat.=22.140728, lon.=104.321198, Alt.=337.207275m. Speed=12.564000m/h.</desc>
<speed>3.490000</speed>
</trkpt>
<trkpt lat="22.140881" lon="104.321167">
<ele>336.2</ele>
<time>2011-04-27T07:23:46Z</time>
<desc>lat.=22.140881, lon.=104.321167, Alt.=335.676025m. Speed=11.520000m/h.</desc>
<speed>3.200000</speed>
</trkpt>
<trkpt lat="22.141205" lon="104.321442">
<ele>329.5</ele>
<time>2011-04-27T07:23:56Z</time>
<desc>lat.=22.141205, lon.=104.321442, Alt.=331.621338m. Speed=21.996000m/h.</desc>
<speed>6.110000</speed>
</trkpt>
<trkpt lat="22.141348" lon="104.321838">
<ele>323.4</ele>
<time>2011-04-27T07:24:11Z</time>
<desc>lat.=22.141348, lon.=104.321838, Alt.=326.847900m. Speed=6.984000m/h.</desc>
<speed>1.940000</speed>
</trkpt>
<trkpt lat="22.142239" lon="104.322433">
<ele>318.0</ele>
<time>2011-04-27T07:24:56Z</time>
<desc>lat.=22.142239, lon.=104.322433, Alt.=324.902588m. Speed=8.064000m/h.</desc>
<speed>2.240000</speed>
</trkpt>
<trkpt lat="22.142693" lon="104.323242">
<ele>335.4</ele>
<time>2011-04-27T07:25:16Z</time>
<desc>lat.=22.142693, lon.=104.323242, Alt.=320.410400m. Speed=26.964001m/h.</desc>
<speed>7.490000</speed>
</trkpt>
<trkpt lat="22.143459" lon="104.323456">
<ele>316.3</ele>
<time>2011-04-27T07:25:31Z</time>
<desc>lat.=22.143459, lon.=104.323456, Alt.=318.261963m. Speed=9.900000m/h.</desc>
<speed>2.750000</speed>
</trkpt>
<trkpt lat="22.143412" lon="104.324120">
<ele>317.9</ele>
<time>2011-04-27T07:25:51Z</time>
<desc>lat.=22.143412, lon.=104.324120, Alt.=313.965088m. Speed=14.184000m/h.</desc>
<speed>3.940000</speed>
</trkpt>
<trkpt lat="22.143959" lon="104.325890">
<ele>296.0</ele>
<time>2011-04-27T07:26:21Z</time>
<desc>lat.=22.143959, lon.=104.325890, Alt.=304.933838m. Speed=21.636000m/h.</desc>
<speed>6.010000</speed>
</trkpt>
<trkpt lat="22.144560" lon="104.326340">
<ele>286.0</ele>
<time>2011-04-27T07:26:41Z</time>
<desc>lat.=22.144560, lon.=104.326340, Alt.=295.183838m. Speed=22.176001m/h.</desc>
<speed>6.160000</speed>
</trkpt>
<trkpt lat="22.144154" lon="104.327560">
<ele>291.3</ele>
<time>2011-04-27T07:26:56Z</time>
<desc>lat.=22.144154, lon.=104.327560, Alt.=285.472900m. Speed=29.412001m/h.</desc>
<speed>8.170000</speed>
</trkpt>
<trkpt lat="22.144260" lon="104.328171">
<ele>271.2</ele>
<time>2011-04-27T07:27:06Z</time>
<desc>lat.=22.144260, lon.=104.328171, Alt.=279.894775m. Speed=16.236000m/h.</desc>
<speed>4.510000</speed>
</trkpt>
<trkpt lat="22.144039" lon="104.328659">
<ele>282.4</ele>
<time>2011-04-27T07:27:16Z</time>
<desc>lat.=22.144039, lon.=104.328659, Alt.=276.847900m. Speed=20.448000m/h.</desc>
<speed>5.680000</speed>
</trkpt>
<trkpt lat="22.144089" lon="104.329239">
<ele>257.5</ele>
<time>2011-04-27T07:27:26Z</time>
<desc>lat.=22.144089, lon.=104.329239, Alt.=274.793213m. Speed=16.559999m/h.</desc>
<speed>4.600000</speed>
</trkpt>
<trkpt lat="22.143549" lon="104.329575">
<ele>266.3</ele>
<time>2011-04-27T07:27:41Z</time>
<desc>lat.=22.143549, lon.=104.329575, Alt.=262.996338m. Speed=19.872000m/h.</desc>
<speed>5.520000</speed>
</trkpt>
<trkpt lat="22.143557" lon="104.330246">
<ele>248.6</ele>
<time>2011-04-27T07:27:56Z</time>
<desc>lat.=22.143557, lon.=104.330246, Alt.=259.699463m. Speed=10.548000m/h.</desc>
<speed>2.930000</speed>
</trkpt>
<trkpt lat="22.143206" lon="104.330498">
<ele>239.8</ele>
<time>2011-04-27T07:28:06Z</time>
<desc>lat.=22.143206, lon.=104.330498, Alt.=255.798950m. Speed=18.540001m/h.</desc>
<speed>5.150000</speed>
</trkpt>
<trkpt lat="22.142595" lon="104.330437">
<ele>231.9</ele>
<time>2011-04-27T07:29:41Z</time>
<desc>lat.=22.142595, lon.=104.330437, Alt.=244.599731m. Speed=0.936000m/h.</desc>
<speed>0.260000</speed>
</trkpt>
<trkpt lat="22.141573" lon="104.330902">
<ele>235.3</ele>
<time>2011-04-27T07:30:21Z</time>
<desc>lat.=22.141573, lon.=104.330902, Alt.=237.533325m. Speed=32.400002m/h.</desc>
<speed>9.000000</speed>
</trkpt>
<trkpt lat="22.141403" lon="104.331184">
<ele>242.8</ele>
<time>2011-04-27T07:30:26Z</time>
<desc>lat.=22.141403, lon.=104.331184, Alt.=233.287231m. Speed=24.875999m/h.</desc>
<speed>6.910000</speed>
</trkpt>
<trkpt lat="22.141558" lon="104.331459">
<ele>246.9</ele>
<time>2011-04-27T07:30:31Z</time>
<desc>lat.=22.141558, lon.=104.331459, Alt.=230.994263m. Speed=24.768000m/h.</desc>
<speed>6.880000</speed>
</trkpt>
<trkpt lat="22.142303" lon="104.331375">
<ele>245.0</ele>
<time>2011-04-27T07:30:41Z</time>
<desc>lat.=22.142303, lon.=104.331375, Alt.=230.099731m. Speed=28.403999m/h.</desc>
<speed>7.890000</speed>
</trkpt>
<trkpt lat="22.142973" lon="104.331841">
<ele>233.2</ele>
<time>2011-04-27T07:30:51Z</time>
<desc>lat.=22.142973, lon.=104.331841, Alt.=233.392700m. Speed=26.100000m/h.</desc>
<speed>7.250000</speed>
</trkpt>
<trkpt lat="22.143633" lon="104.331612">
<ele>220.5</ele>
<time>2011-04-27T07:31:01Z</time>
<desc>lat.=22.143633, lon.=104.331612, Alt.=227.814575m. Speed=25.128000m/h.</desc>
<speed>6.980000</speed>
</trkpt>
<trkpt lat="22.144083" lon="104.332161">
<ele>220.5</ele>
<time>2011-04-27T07:31:11Z</time>
<desc>lat.=22.144083, lon.=104.332161, Alt.=226.228638m. Speed=32.292000m/h.</desc>
<speed>8.970000</speed>
</trkpt>
<trkpt lat="22.144432" lon="104.332291">
<ele>212.9</ele>
<time>2011-04-27T07:31:16Z</time>
<desc>lat.=22.144432, lon.=104.332291, Alt.=223.005981m. Speed=24.840000m/h.</desc>
<speed>6.900000</speed>
</trkpt>
<trkpt lat="22.144964" lon="104.331848">
<ele>200.3</ele>
<time>2011-04-27T07:31:56Z</time>
<desc>lat.=22.144964, lon.=104.331848, Alt.=218.627075m. Speed=18.972000m/h.</desc>
<speed>5.270000</speed>
</trkpt>
<trkpt lat="22.145477" lon="104.332085">
<ele>199.4</ele>
<time>2011-04-27T07:32:06Z</time>
<desc>lat.=22.145477, lon.=104.332085, Alt.=213.173950m. Speed=23.472000m/h.</desc>
<speed>6.520000</speed>
</trkpt>
<trkpt lat="22.146217" lon="104.332054">
<ele>190.6</ele>
<time>2011-04-27T07:32:41Z</time>
<desc>lat.=22.146217, lon.=104.332054, Alt.=202.283325m. Speed=21.924000m/h.</desc>
<speed>6.090000</speed>
</trkpt>
<trkpt lat="22.146505" lon="104.332169">
<ele>188.2</ele>
<time>2011-04-27T07:32:46Z</time>
<desc>lat.=22.146505, lon.=104.332169, Alt.=196.896606m. Speed=19.872000m/h.</desc>
<speed>5.520000</speed>
</trkpt>
<trkpt lat="22.146824" lon="104.332840">
<ele>189.8</ele>
<time>2011-04-27T07:32:56Z</time>
<desc>lat.=22.146824, lon.=104.332840, Alt.=188.689575m. Speed=25.236000m/h.</desc>
<speed>7.010000</speed>
</trkpt>
<trkpt lat="22.147261" lon="104.333290">
<ele>182.9</ele>
<time>2011-04-27T07:36:11Z</time>
<desc>lat.=22.147261, lon.=104.333290, Alt.=185.064575m. Speed=10.080000m/h.</desc>
<speed>2.800000</speed>
</trkpt>
<trkpt lat="22.148077" lon="104.333527">
<ele>168.1</ele>
<time>2011-04-27T07:36:31Z</time>
<desc>lat.=22.148077, lon.=104.333527, Alt.=180.318481m. Speed=19.620001m/h.</desc>
<speed>5.450000</speed>
</trkpt>
<trkpt lat="22.148447" lon="104.334419">
<ele>169.5</ele>
<time>2011-04-27T07:36:46Z</time>
<desc>lat.=22.148447, lon.=104.334419, Alt.=165.752075m. Speed=23.544001m/h.</desc>
<speed>6.540000</speed>
</trkpt>
<trkpt lat="22.148647" lon="104.336380">
<ele>154.1</ele>
<time>2011-04-27T07:37:16Z</time>
<desc>lat.=22.148647, lon.=104.336380, Alt.=151.259888m. Speed=28.368000m/h.</desc>
<speed>7.880000</speed>
</trkpt>
<trkpt lat="22.149387" lon="104.338158">
<ele>143.4</ele>
<time>2011-04-27T07:37:51Z</time>
<desc>lat.=22.149387, lon.=104.338158, Alt.=146.896606m. Speed=23.364000m/h.</desc>
<speed>6.490000</speed>
</trkpt>
<trkpt lat="22.149506" lon="104.339783">
<ele>123.4</ele>
<time>2011-04-27T07:38:16Z</time>
<desc>lat.=22.149506, lon.=104.339783, Alt.=126.876038m. Speed=33.624001m/h.</desc>
<speed>9.340000</speed>
</trkpt>
<trkpt lat="22.149689" lon="104.340195">
<ele>117.0</ele>
<time>2011-04-27T07:38:21Z</time>
<desc>lat.=22.149689, lon.=104.340195, Alt.=121.395569m. Speed=31.608000m/h.</desc>
<speed>8.780000</speed>
</trkpt>
<trkpt lat="22.150343" lon="104.340508">
<ele>109.4</ele>
<time>2011-04-27T07:38:31Z</time>
<desc>lat.=22.150343, lon.=104.340508, Alt.=112.436584m. Speed=27.360001m/h.</desc>
<speed>7.600000</speed>
</trkpt>
<trkpt lat="22.150049" lon="104.341660">
<ele>111.1</ele>
<time>2011-04-27T07:39:56Z</time>
<desc>lat.=22.150049, lon.=104.341660, Alt.=104.051819m. Speed=12.564000m/h.</desc>
<speed>3.490000</speed>
</trkpt>
<trkpt lat="22.150743" lon="104.342438">
<ele>98.0</ele>
<time>2011-04-27T07:40:26Z</time>
<desc>lat.=22.150743, lon.=104.342438, Alt.=99.014709m. Speed=14.292000m/h.</desc>
<speed>3.970000</speed>
</trkpt>
<trkpt lat="22.150831" lon="104.343086">
<ele>87.8</ele>
<time>2011-04-27T07:40:41Z</time>
<desc>lat.=22.150831, lon.=104.343086, Alt.=91.508850m. Speed=13.392000m/h.</desc>
<speed>3.720000</speed>
</trkpt>
<trkpt lat="22.152029" lon="104.345802">
<ele>71.4</ele>
<time>2011-04-27T07:44:51Z</time>
<desc>lat.=22.152029, lon.=104.345802, Alt.=92.042053m. Speed=12.204000m/h.</desc>
<speed>3.390000</speed>
</trkpt>
<trkpt lat="22.152365" lon="104.345993">
<ele>69.7</ele>
<time>2011-04-27T07:45:06Z</time>
<desc>lat.=22.152365, lon.=104.345993, Alt.=88.024475m. Speed=9.900000m/h.</desc>
<speed>2.750000</speed>
</trkpt>
<trkpt lat="22.153484" lon="104.346077">
<ele>75.1</ele>
<time>2011-04-27T07:45:56Z</time>
<desc>lat.=22.153484, lon.=104.346077, Alt.=73.977600m. Speed=3.960000m/h.</desc>
<speed>1.100000</speed>
</trkpt>
<trkpt lat="22.154623" lon="104.346405">
<ele>74.5</ele>
<time>2011-04-27T07:47:01Z</time>
<desc>lat.=22.154623, lon.=104.346405, Alt.=89.751038m. Speed=4.212000m/h.</desc>
<speed>1.170000</speed>
</trkpt>
<trkpt lat="22.155521" lon="104.346519">
<ele>97.3</ele>
<time>2011-04-27T07:48:01Z</time>
<desc>lat.=22.155521, lon.=104.346519, Alt.=100.399475m. Speed=4.464000m/h.</desc>
<speed>1.240000</speed>
</trkpt>
<trkpt lat="22.155962" lon="104.346359">
<ele>96.5</ele>
<time>2011-04-27T07:49:31Z</time>
<desc>lat.=22.155962, lon.=104.346359, Alt.=99.915100m. Speed=0.972000m/h.</desc>
<speed>0.270000</speed>
</trkpt>
<trkpt lat="22.156048" lon="104.346466">
<ele>106.5</ele>
<time>2011-04-27T07:50:26Z</time>
<desc>lat.=22.156048, lon.=104.346466, Alt.=101.504944m. Speed=0.216000m/h.</desc>
<speed>0.060000</speed>
</trkpt>
<trkpt lat="22.157747" lon="104.344963">
<ele>75.0</ele>
<time>2011-04-27T07:52:06Z</time>
<desc>lat.=22.157747, lon.=104.344963, Alt.=67.635803m. Speed=24.732000m/h.</desc>
<speed>6.870000</speed>
</trkpt>
<trkpt lat="22.158386" lon="104.344635">
<ele>88.5</ele>
<time>2011-04-27T07:52:26Z</time>
<desc>lat.=22.158386, lon.=104.344635, Alt.=77.086975m. Speed=6.516000m/h.</desc>
<speed>1.810000</speed>
</trkpt>
<trkpt lat="22.159548" lon="104.344688">
<ele>95.3</ele>
<time>2011-04-27T07:53:21Z</time>
<desc>lat.=22.159548, lon.=104.344688, Alt.=87.483459m. Speed=14.364000m/h.</desc>
<speed>3.990000</speed>
</trkpt>
<trkpt lat="22.161161" lon="104.345909">
<ele>88.4</ele>
<time>2011-04-27T07:53:56Z</time>
<desc>lat.=22.161161, lon.=104.345909, Alt.=65.821350m. Speed=18.648001m/h.</desc>
<speed>5.180000</speed>
</trkpt>
<trkpt lat="22.162275" lon="104.348831">
<ele>72.7</ele>
<time>2011-04-27T07:55:01Z</time>
<desc>lat.=22.162275, lon.=104.348831, Alt.=71.563538m. Speed=26.747999m/h.</desc>
<speed>7.430000</speed>
</trkpt>
<trkpt lat="22.162994" lon="104.349915">
<ele>66.5</ele>
<time>2011-04-27T07:55:26Z</time>
<desc>lat.=22.162994, lon.=104.349915, Alt.=64.258850m. Speed=19.476000m/h.</desc>
<speed>5.410000</speed>
</trkpt>
<trkpt lat="22.164831" lon="104.351891">
<ele>77.7</ele>
<time>2011-04-27T07:56:21Z</time>
<desc>lat.=22.164831, lon.=104.351891, Alt.=78.034241m. Speed=14.076000m/h.</desc>
<speed>3.910000</speed>
</trkpt>
<trkpt lat="22.166166" lon="104.353813">
<ele>71.7</ele>
<time>2011-04-27T07:57:11Z</time>
<desc>lat.=22.166166, lon.=104.353813, Alt.=66.936584m. Speed=13.536000m/h.</desc>
<speed>3.760000</speed>
</trkpt>
<trkpt lat="22.167894" lon="104.355133">
<ele>66.7</ele>
<time>2011-04-27T07:58:21Z</time>
<desc>lat.=22.167894, lon.=104.355133, Alt.=73.651428m. Speed=10.008000m/h.</desc>
<speed>2.780000</speed>
</trkpt>
<trkpt lat="22.168005" lon="104.355278">
<ele>65.6</ele>
<time>2011-04-27T07:58:31Z</time>
<desc>lat.=22.168005, lon.=104.355278, Alt.=75.868225m. Speed=4.212000m/h.</desc>
<speed>1.170000</speed>
</trkpt>
<trkpt lat="22.167845" lon="104.355522">
<ele>66.1</ele>
<time>2011-04-27T08:00:16Z</time>
<desc>lat.=22.167845, lon.=104.355522, Alt.=64.909241m. Speed=1.404000m/h.</desc>
<speed>0.390000</speed>
</trkpt>
<trkpt lat="22.167946" lon="104.355370">
<ele>65.8</ele>
<time>2011-04-27T08:11:26Z</time>
<desc>lat.=22.167946, lon.=104.355370, Alt.=67.446350m. Speed=7.452000m/h.</desc>
<speed>2.070000</speed>
</trkpt>
<trkpt lat="22.167847" lon="104.355095">
<ele>67.8</ele>
<time>2011-04-27T08:11:36Z</time>
<desc>lat.=22.167847, lon.=104.355095, Alt.=69.092834m. Speed=8.568000m/h.</desc>
<speed>2.380000</speed>
</trkpt>
<trkpt lat="22.167105" lon="104.354370">
<ele>77.4</ele>
<time>2011-04-27T08:12:46Z</time>
<desc>lat.=22.167105, lon.=104.354370, Alt.=76.852600m. Speed=0.144000m/h.</desc>
<speed>0.040000</speed>
</trkpt>
<trkpt lat="22.166988" lon="104.354515">
<ele>85.4</ele>
<time>2011-04-27T08:34:11Z</time>
<desc>lat.=22.166988, lon.=104.354515, Alt.=80.461975m. Speed=0.000000m/h.</desc>
<speed>0.000000</speed>
</trkpt>
<trkpt lat="22.167187" lon="104.354408">
<ele>76.4</ele>
<time>2011-04-27T08:44:26Z</time>
<desc>lat.=22.167187, lon.=104.354408, Alt.=82.231506m. Speed=0.072000m/h.</desc>
<speed>0.020000</speed>
</trkpt>
<trkpt lat="22.168024" lon="104.355232">
<ele>65.5</ele>
<time>2011-04-27T08:53:56Z</time>
<desc>lat.=22.168024, lon.=104.355232, Alt.=75.176819m. Speed=11.952000m/h.</desc>
<speed>3.320000</speed>
</trkpt>
<trkpt lat="22.167925" lon="104.355453">
<ele>65.6</ele>
<time>2011-04-27T08:55:16Z</time>
<desc>lat.=22.167925, lon.=104.355453, Alt.=67.786194m. Speed=0.504000m/h.</desc>
<speed>0.140000</speed>
</trkpt>
<trkpt lat="22.168802" lon="104.355751">
<ele>68.7</ele>
<time>2011-04-27T08:56:31Z</time>
<desc>lat.=22.168802, lon.=104.355751, Alt.=67.557678m. Speed=0.036000m/h.</desc>
<speed>0.010000</speed>
</trkpt>
<trkpt lat="22.169231" lon="104.355736">
<ele>66.3</ele>
<time>2011-04-27T08:57:26Z</time>
<desc>lat.=22.169231, lon.=104.355736, Alt.=69.774475m. Speed=10.008000m/h.</desc>
<speed>2.780000</speed>
</trkpt>
<trkpt lat="22.172510" lon="104.353874">
<ele>68.5</ele>
<time>2011-04-27T09:02:56Z</time>
<desc>lat.=22.172510, lon.=104.353874, Alt.=68.002991m. Speed=7.344000m/h.</desc>
<speed>2.040000</speed>
</trkpt>
<trkpt lat="22.176252" lon="104.354233">
<ele>64.8</ele>
<time>2011-04-27T09:06:36Z</time>
<desc>lat.=22.176252, lon.=104.354233, Alt.=72.674866m. Speed=15.300000m/h.</desc>
<speed>4.250000</speed>
</trkpt>
<trkpt lat="22.178612" lon="104.353539">
<ele>65.2</ele>
<time>2011-04-27T09:10:01Z</time>
<desc>lat.=22.178612, lon.=104.353539, Alt.=72.366272m. Speed=9.324000m/h.</desc>
<speed>2.590000</speed>
</trkpt>
<trkpt lat="22.179522" lon="104.353783">
<ele>68.0</ele>
<time>2011-04-27T09:11:06Z</time>
<desc>lat.=22.179522, lon.=104.353783, Alt.=71.618225m. Speed=5.292000m/h.</desc>
<speed>1.470000</speed>
</trkpt>
<trkpt lat="22.180307" lon="104.354187">
<ele>72.2</ele>
<time>2011-04-27T09:11:41Z</time>
<desc>lat.=22.180307, lon.=104.354187, Alt.=72.663147m. Speed=12.960000m/h.</desc>
<speed>3.600000</speed>
</trkpt>
<trkpt lat="22.181580" lon="104.355408">
<ele>72.3</ele>
<time>2011-04-27T09:12:31Z</time>
<desc>lat.=22.181580, lon.=104.355408, Alt.=69.133850m. Speed=11.880000m/h.</desc>
<speed>3.300000</speed>
</trkpt>
<trkpt lat="22.182320" lon="104.355919">
<ele>83.9</ele>
<time>2011-04-27T09:12:56Z</time>
<desc>lat.=22.182320, lon.=104.355919, Alt.=67.596741m. Speed=12.528000m/h.</desc>
<speed>3.480000</speed>
</trkpt>
<trkpt lat="22.182751" lon="104.356590">
<ele>77.8</ele>
<time>2011-04-27T09:13:21Z</time>
<desc>lat.=22.182751, lon.=104.356590, Alt.=68.667053m. Speed=6.588000m/h.</desc>
<speed>1.830000</speed>
</trkpt>
<trkpt lat="22.183004" lon="104.357346">
<ele>79.2</ele>
<time>2011-04-27T09:13:51Z</time>
<desc>lat.=22.183004, lon.=104.357346, Alt.=72.670959m. Speed=3.276000m/h.</desc>
<speed>0.910000</speed>
</trkpt>
<trkpt lat="22.182993" lon="104.358292">
<ele>82.0</ele>
<time>2011-04-27T09:14:26Z</time>
<desc>lat.=22.182993, lon.=104.358292, Alt.=82.960022m. Speed=13.680000m/h.</desc>
<speed>3.800000</speed>
</trkpt>
<trkpt lat="22.183619" lon="104.359344">
<ele>78.8</ele>
<time>2011-04-27T09:15:01Z</time>
<desc>lat.=22.183619, lon.=104.359344, Alt.=91.430725m. Speed=11.016000m/h.</desc>
<speed>3.060000</speed>
</trkpt>
<trkpt lat="22.183559" lon="104.359802">
<ele>75.8</ele>
<time>2011-04-27T09:15:11Z</time>
<desc>lat.=22.183559, lon.=104.359802, Alt.=94.174866m. Speed=11.916000m/h.</desc>
<speed>3.310000</speed>
</trkpt>
<trkpt lat="22.182690" lon="104.361137">
<ele>84.3</ele>
<time>2011-04-27T09:15:56Z</time>
<desc>lat.=22.182690, lon.=104.361137, Alt.=87.895569m. Speed=3.528000m/h.</desc>
<speed>0.980000</speed>
</trkpt>
<trkpt lat="22.182688" lon="104.361366">
<ele>88.9</ele>
<time>2011-04-27T09:16:06Z</time>
<desc>lat.=22.182688, lon.=104.361366, Alt.=84.997131m. Speed=8.172000m/h.</desc>
<speed>2.270000</speed>
</trkpt>
<trkpt lat="22.183365" lon="104.362679">
<ele>92.1</ele>
<time>2011-04-27T09:16:56Z</time>
<desc>lat.=22.183365, lon.=104.362679, Alt.=75.766663m. Speed=7.704000m/h.</desc>
<speed>2.140000</speed>
</trkpt>
<trkpt lat="22.183432" lon="104.363426">
<ele>108.5</ele>
<time>2011-04-27T09:17:21Z</time>
<desc>lat.=22.183432, lon.=104.363426, Alt.=77.122131m. Speed=10.188000m/h.</desc>
<speed>2.830000</speed>
</trkpt>
<trkpt lat="22.184189" lon="104.363976">
<ele>88.4</ele>
<time>2011-04-27T09:17:56Z</time>
<desc>lat.=22.184189, lon.=104.363976, Alt.=78.899475m. Speed=10.944000m/h.</desc>
<speed>3.040000</speed>
</trkpt>
<trkpt lat="22.184206" lon="104.364250">
<ele>88.4</ele>
<time>2011-04-27T09:18:06Z</time>
<desc>lat.=22.184206, lon.=104.364250, Alt.=79.270569m. Speed=11.052000m/h.</desc>
<speed>3.070000</speed>
</trkpt>
<trkpt lat="22.183886" lon="104.365112">
<ele>83.5</ele>
<time>2011-04-27T09:18:36Z</time>
<desc>lat.=22.183886, lon.=104.365112, Alt.=80.034241m. Speed=9.612000m/h.</desc>
<speed>2.670000</speed>
</trkpt>
<trkpt lat="22.182941" lon="104.366158">
<ele>85.8</ele>
<time>2011-04-27T09:19:26Z</time>
<desc>lat.=22.182941, lon.=104.366158, Alt.=90.788147m. Speed=12.780000m/h.</desc>
<speed>3.550000</speed>
</trkpt>
<trkpt lat="22.183025" lon="104.368172">
<ele>88.9</ele>
<time>2011-04-27T09:20:36Z</time>
<desc>lat.=22.183025, lon.=104.368172, Alt.=88.516663m. Speed=8.640000m/h.</desc>
<speed>2.400000</speed>
</trkpt>
<trkpt lat="22.184605" lon="104.368660">
<ele>124.3</ele>
<time>2011-04-27T09:24:26Z</time>
<desc>lat.=22.184605, lon.=104.368660, Alt.=91.561584m. Speed=6.948000m/h.</desc>
<speed>1.930000</speed>
</trkpt>
<trkpt lat="22.185749" lon="104.369804">
<ele>117.8</ele>
<time>2011-04-27T09:25:41Z</time>
<desc>lat.=22.185749, lon.=104.369804, Alt.=104.688538m. Speed=6.984000m/h.</desc>
<speed>1.940000</speed>
</trkpt>
<trkpt lat="22.185923" lon="104.370094">
<ele>115.9</ele>
<time>2011-04-27T09:25:56Z</time>
<desc>lat.=22.185923, lon.=104.370094, Alt.=103.817444m. Speed=7.344000m/h.</desc>
<speed>2.040000</speed>
</trkpt>
<trkpt lat="22.185774" lon="104.370872">
<ele>124.7</ele>
<time>2011-04-27T09:26:31Z</time>
<desc>lat.=22.185774, lon.=104.370872, Alt.=108.428772m. Speed=7.272000m/h.</desc>
<speed>2.020000</speed>
</trkpt>
<trkpt lat="22.186552" lon="104.372505">
<ele>126.1</ele>
<time>2011-04-27T09:28:06Z</time>
<desc>lat.=22.186552, lon.=104.372505, Alt.=120.678772m. Speed=12.492000m/h.</desc>
<speed>3.470000</speed>
</trkpt>
<trkpt lat="22.186481" lon="104.373207">
<ele>128.2</ele>
<time>2011-04-27T09:28:26Z</time>
<desc>lat.=22.186481, lon.=104.373207, Alt.=116.579163m. Speed=9.828000m/h.</desc>
<speed>2.730000</speed>
</trkpt>
<trkpt lat="22.186928" lon="104.373459">
<ele>134.3</ele>
<time>2011-04-27T09:28:51Z</time>
<desc>lat.=22.186928, lon.=104.373459, Alt.=123.006897m. Speed=9.792000m/h.</desc>
<speed>2.720000</speed>
</trkpt>
<trkpt lat="22.187387" lon="104.373978">
<ele>136.0</ele>
<time>2011-04-27T09:29:21Z</time>
<desc>lat.=22.187387, lon.=104.373978, Alt.=124.344788m. Speed=8.604000m/h.</desc>
<speed>2.390000</speed>
</trkpt>
<trkpt lat="22.188215" lon="104.374138">
<ele>136.7</ele>
<time>2011-04-27T09:29:51Z</time>
<desc>lat.=22.188215, lon.=104.374138, Alt.=119.235413m. Speed=17.028000m/h.</desc>
<speed>4.730000</speed>
</trkpt>
<trkpt lat="22.189503" lon="104.375328">
<ele>139.2</ele>
<time>2011-04-27T09:31:16Z</time>
<desc>lat.=22.189503, lon.=104.375328, Alt.=122.348694m. Speed=7.416000m/h.</desc>
<speed>2.060000</speed>
</trkpt>
<trkpt lat="22.189684" lon="104.375748">
<ele>144.7</ele>
<time>2011-04-27T09:31:31Z</time>
<desc>lat.=22.189684, lon.=104.375748, Alt.=124.135803m. Speed=8.892000m/h.</desc>
<speed>2.470000</speed>
</trkpt>
<trkpt lat="22.190561" lon="104.376633">
<ele>121.1</ele>
<time>2011-04-27T09:31:56Z</time>
<desc>lat.=22.190561, lon.=104.376633, Alt.=120.915100m. Speed=23.184000m/h.</desc>
<speed>6.440000</speed>
</trkpt>
<trkpt lat="22.190626" lon="104.376984">
<ele>114.4</ele>
<time>2011-04-27T09:32:01Z</time>
<desc>lat.=22.190626, lon.=104.376984, Alt.=117.157288m. Speed=27.035999m/h.</desc>
<speed>7.510000</speed>
</trkpt>
<trkpt lat="22.190174" lon="104.377930">
<ele>107.9</ele>
<time>2011-04-27T09:32:16Z</time>
<desc>lat.=22.190174, lon.=104.377930, Alt.=99.002991m. Speed=9.324000m/h.</desc>
<speed>2.590000</speed>
</trkpt>
<trkpt lat="22.190315" lon="104.378471">
<ele>114.0</ele>
<time>2011-04-27T09:32:36Z</time>
<desc>lat.=22.190315, lon.=104.378471, Alt.=99.836975m. Speed=14.688000m/h.</desc>
<speed>4.080000</speed>
</trkpt>
<trkpt lat="22.191895" lon="104.379463">
<ele>123.7</ele>
<time>2011-04-27T09:33:31Z</time>
<desc>lat.=22.191895, lon.=104.379463, Alt.=109.891663m. Speed=11.592000m/h.</desc>
<speed>3.220000</speed>
</trkpt>
<trkpt lat="22.193438" lon="104.380844">
<ele>139.2</ele>
<time>2011-04-27T09:34:36Z</time>
<desc>lat.=22.193438, lon.=104.380844, Alt.=116.762756m. Speed=10.152000m/h.</desc>
<speed>2.820000</speed>
</trkpt>
<trkpt lat="22.193502" lon="104.381683">
<ele>119.8</ele>
<time>2011-04-27T09:35:06Z</time>
<desc>lat.=22.193502, lon.=104.381683, Alt.=124.846741m. Speed=9.072000m/h.</desc>
<speed>2.520000</speed>
</trkpt>
<trkpt lat="22.192881" lon="104.382019">
<ele>123.7</ele>
<time>2011-04-27T09:36:31Z</time>
<desc>lat.=22.192881, lon.=104.382019, Alt.=118.227600m. Speed=17.856001m/h.</desc>
<speed>4.960000</speed>
</trkpt>
<trkpt lat="22.193029" lon="104.382675">
<ele>117.5</ele>
<time>2011-04-27T09:36:41Z</time>
<desc>lat.=22.193029, lon.=104.382675, Alt.=116.756897m. Speed=21.780001m/h.</desc>
<speed>6.050000</speed>
</trkpt>
<trkpt lat="22.194681" lon="104.383186">
<ele>130.8</ele>
<time>2011-04-27T09:37:46Z</time>
<desc>lat.=22.194681, lon.=104.383186, Alt.=121.352600m. Speed=9.504000m/h.</desc>
<speed>2.640000</speed>
</trkpt>
<trkpt lat="22.195036" lon="104.383438">
<ele>128.1</ele>
<time>2011-04-27T09:38:01Z</time>
<desc>lat.=22.195036, lon.=104.383438, Alt.=120.153381m. Speed=10.260000m/h.</desc>
<speed>2.850000</speed>
</trkpt>
<trkpt lat="22.195395" lon="104.384056">
<ele>128.4</ele>
<time>2011-04-27T09:38:16Z</time>
<desc>lat.=22.195395, lon.=104.384056, Alt.=117.674866m. Speed=20.160000m/h.</desc>
<speed>5.600000</speed>
</trkpt>
<trkpt lat="22.196032" lon="104.383926">
<ele>131.2</ele>
<time>2011-04-27T09:38:36Z</time>
<desc>lat.=22.196032, lon.=104.383926, Alt.=119.889709m. Speed=9.756000m/h.</desc>
<speed>2.710000</speed>
</trkpt>
<trkpt lat="22.196602" lon="104.384094">
<ele>135.3</ele>
<time>2011-04-27T09:38:56Z</time>
<desc>lat.=22.196602, lon.=104.384094, Alt.=122.409241m. Speed=9.756000m/h.</desc>
<speed>2.710000</speed>
</trkpt>
<trkpt lat="22.196844" lon="104.384773">
<ele>129.3</ele>
<time>2011-04-27T09:39:31Z</time>
<desc>lat.=22.196844, lon.=104.384773, Alt.=122.760803m. Speed=6.336000m/h.</desc>
<speed>1.760000</speed>
</trkpt>
<trkpt lat="22.196836" lon="104.385269">
<ele>138.2</ele>
<time>2011-04-27T09:39:51Z</time>
<desc>lat.=22.196836, lon.=104.385269, Alt.=122.223694m. Speed=10.692000m/h.</desc>
<speed>2.970000</speed>
</trkpt>
<trkpt lat="22.197134" lon="104.385582">
<ele>151.7</ele>
<time>2011-04-27T09:40:06Z</time>
<desc>lat.=22.197134, lon.=104.385582, Alt.=125.213928m. Speed=12.132000m/h.</desc>
<speed>3.370000</speed>
</trkpt>
<trkpt lat="22.198025" lon="104.385681">
<ele>145.0</ele>
<time>2011-04-27T09:40:46Z</time>
<desc>lat.=22.198025, lon.=104.385681, Alt.=125.825256m. Speed=12.636000m/h.</desc>
<speed>3.510000</speed>
</trkpt>
<trkpt lat="22.198591" lon="104.385979">
<ele>155.4</ele>
<time>2011-04-27T09:41:11Z</time>
<desc>lat.=22.198591, lon.=104.385979, Alt.=127.094788m. Speed=9.396000m/h.</desc>
<speed>2.610000</speed>
</trkpt>
<trkpt lat="22.199200" lon="104.385727">
<ele>147.4</ele>
<time>2011-04-27T09:41:31Z</time>
<desc>lat.=22.199200, lon.=104.385727, Alt.=132.416138m. Speed=12.960000m/h.</desc>
<speed>3.600000</speed>
</trkpt>
<trkpt lat="22.199646" lon="104.385803">
<ele>145.5</ele>
<time>2011-04-27T09:42:06Z</time>
<desc>lat.=22.199646, lon.=104.385803, Alt.=142.994263m. Speed=0.180000m/h.</desc>
<speed>0.050000</speed>
</trkpt>
<trkpt lat="22.199713" lon="104.385979">
<ele>145.6</ele>
<time>2011-04-27T09:42:31Z</time>
<desc>lat.=22.199713, lon.=104.385979, Alt.=143.486450m. Speed=9.072000m/h.</desc>
<speed>2.520000</speed>
</trkpt>
<trkpt lat="22.199341" lon="104.386360">
<ele>156.4</ele>
<time>2011-04-27T09:42:51Z</time>
<desc>lat.=22.199341, lon.=104.386360, Alt.=148.091919m. Speed=10.440000m/h.</desc>
<speed>2.900000</speed>
</trkpt>
<trkpt lat="22.199135" lon="104.387215">
<ele>163.9</ele>
<time>2011-04-27T09:43:26Z</time>
<desc>lat.=22.199135, lon.=104.387215, Alt.=154.134888m. Speed=7.272000m/h.</desc>
<speed>2.020000</speed>
</trkpt>
<trkpt lat="22.199343" lon="104.387558">
<ele>164.8</ele>
<time>2011-04-27T09:43:41Z</time>
<desc>lat.=22.199343, lon.=104.387558, Alt.=156.244263m. Speed=6.552000m/h.</desc>
<speed>1.820000</speed>
</trkpt>
<trkpt lat="22.199986" lon="104.387718">
<ele>164.9</ele>
<time>2011-04-27T09:44:16Z</time>
<desc>lat.=22.199986, lon.=104.387718, Alt.=148.865356m. Speed=9.792000m/h.</desc>
<speed>2.720000</speed>
</trkpt>
<trkpt lat="22.200153" lon="104.387917">
<ele>165.4</ele>
<time>2011-04-27T09:44:26Z</time>
<desc>lat.=22.200153, lon.=104.387917, Alt.=145.252075m. Speed=11.016000m/h.</desc>
<speed>3.060000</speed>
</trkpt>
<trkpt lat="22.200087" lon="104.388718">
<ele>187.2</ele>
<time>2011-04-27T09:44:51Z</time>
<desc>lat.=22.200087, lon.=104.388718, Alt.=139.111450m. Speed=8.496000m/h.</desc>
<speed>2.360000</speed>
</trkpt>
<trkpt lat="22.200615" lon="104.389145">
<ele>180.3</ele>
<time>2011-04-27T09:45:21Z</time>
<desc>lat.=22.200615, lon.=104.389145, Alt.=138.923950m. Speed=8.568000m/h.</desc>
<speed>2.380000</speed>
</trkpt>
<trkpt lat="22.200665" lon="104.390091">
<ele>173.7</ele>
<time>2011-04-27T09:46:11Z</time>
<desc>lat.=22.200665, lon.=104.390091, Alt.=157.033325m. Speed=6.192000m/h.</desc>
<speed>1.720000</speed>
</trkpt>
<trkpt lat="22.200302" lon="104.390450">
<ele>170.1</ele>
<time>2011-04-27T09:46:41Z</time>
<desc>lat.=22.200302, lon.=104.390450, Alt.=162.560669m. Speed=5.040000m/h.</desc>
<speed>1.400000</speed>
</trkpt>
<trkpt lat="22.199707" lon="104.390648">
<ele>177.4</ele>
<time>2011-04-27T09:47:16Z</time>
<desc>lat.=22.199707, lon.=104.390648, Alt.=169.420044m. Speed=6.660000m/h.</desc>
<speed>1.850000</speed>
</trkpt>
<trkpt lat="22.198999" lon="104.391159">
<ele>190.8</ele>
<time>2011-04-27T09:48:01Z</time>
<desc>lat.=22.198999, lon.=104.391159, Alt.=177.345825m. Speed=5.796000m/h.</desc>
<speed>1.610000</speed>
</trkpt>
<trkpt lat="22.198154" lon="104.391434">
<ele>188.4</ele>
<time>2011-04-27T09:48:51Z</time>
<desc>lat.=22.198154, lon.=104.391434, Alt.=183.451294m. Speed=7.956000m/h.</desc>
<speed>2.210000</speed>
</trkpt>
<trkpt lat="22.198004" lon="104.391632">
<ele>194.9</ele>
<time>2011-04-27T09:49:46Z</time>
<desc>lat.=22.198004, lon.=104.391632, Alt.=186.716919m. Speed=0.972000m/h.</desc>
<speed>0.270000</speed>
</trkpt>
<trkpt lat="22.199184" lon="104.391754">
<ele>216.7</ele>
<time>2011-04-27T09:56:01Z</time>
<desc>lat.=22.199184, lon.=104.391754, Alt.=198.603638m. Speed=7.056000m/h.</desc>
<speed>1.960000</speed>
</trkpt>
<trkpt lat="22.199821" lon="104.391586">
<ele>211.1</ele>
<time>2011-04-27T09:56:41Z</time>
<desc>lat.=22.199821, lon.=104.391586, Alt.=202.349731m. Speed=5.580000m/h.</desc>
<speed>1.550000</speed>
</trkpt>
<trkpt lat="22.199940" lon="104.391815">
<ele>209.2</ele>
<time>2011-04-27T09:56:56Z</time>
<desc>lat.=22.199940, lon.=104.391815, Alt.=203.752075m. Speed=6.336000m/h.</desc>
<speed>1.760000</speed>
</trkpt>
<trkpt lat="22.199728" lon="104.392609">
<ele>217.4</ele>
<time>2011-04-27T09:57:41Z</time>
<desc>lat.=22.199728, lon.=104.392609, Alt.=205.009888m. Speed=6.768000m/h.</desc>
<speed>1.880000</speed>
</trkpt>
<trkpt lat="22.200222" lon="104.392784">
<ele>219.2</ele>
<time>2011-04-27T09:58:16Z</time>
<desc>lat.=22.200222, lon.=104.392784, Alt.=207.314575m. Speed=0.144000m/h.</desc>
<speed>0.040000</speed>
</trkpt>
<trkpt lat="22.201025" lon="104.393364">
<ele>232.0</ele>
<time>2011-04-27T10:00:21Z</time>
<desc>lat.=22.201025, lon.=104.393364, Alt.=207.240356m. Speed=7.056000m/h.</desc>
<speed>1.960000</speed>
</trkpt>
<trkpt lat="22.201918" lon="104.394554">
<ele>226.4</ele>
<time>2011-04-27T10:01:31Z</time>
<desc>lat.=22.201918, lon.=104.394554, Alt.=217.697388m. Speed=5.688000m/h.</desc>
<speed>1.580000</speed>
</trkpt>
<trkpt lat="22.202440" lon="104.394936">
<ele>236.0</ele>
<time>2011-04-27T10:02:16Z</time>
<desc>lat.=22.202440, lon.=104.394936, Alt.=227.861450m. Speed=4.500000m/h.</desc>
<speed>1.250000</speed>
</trkpt>
<trkpt lat="22.202566" lon="104.395386">
<ele>239.3</ele>
<time>2011-04-27T10:02:56Z</time>
<desc>lat.=22.202566, lon.=104.395386, Alt.=230.798950m. Speed=3.672000m/h.</desc>
<speed>1.020000</speed>
</trkpt>
<trkpt lat="22.203157" lon="104.396240">
<ele>248.4</ele>
<time>2011-04-27T10:03:51Z</time>
<desc>lat.=22.203157, lon.=104.396240, Alt.=244.603638m. Speed=7.704000m/h.</desc>
<speed>2.140000</speed>
</trkpt>
<trkpt lat="22.203291" lon="104.397171">
<ele>270.6</ele>
<time>2011-04-27T10:04:41Z</time>
<desc>lat.=22.203291, lon.=104.397171, Alt.=253.283325m. Speed=5.904000m/h.</desc>
<speed>1.640000</speed>
</trkpt>
<trkpt lat="22.203781" lon="104.397690">
<ele>269.3</ele>
<time>2011-04-27T10:05:21Z</time>
<desc>lat.=22.203781, lon.=104.397690, Alt.=260.480713m. Speed=6.408000m/h.</desc>
<speed>1.780000</speed>
</trkpt>
<trkpt lat="22.204134" lon="104.398392">
<ele>270.6</ele>
<time>2011-04-27T10:06:06Z</time>
<desc>lat.=22.204134, lon.=104.398392, Alt.=267.441650m. Speed=6.660000m/h.</desc>
<speed>1.850000</speed>
</trkpt>
<trkpt lat="22.204138" lon="104.398781">
<ele>276.0</ele>
<time>2011-04-27T10:06:26Z</time>
<desc>lat.=22.204138, lon.=104.398781, Alt.=268.691650m. Speed=5.760000m/h.</desc>
<speed>1.600000</speed>
</trkpt>
<trkpt lat="22.204760" lon="104.399200">
<ele>272.5</ele>
<time>2011-04-27T10:07:11Z</time>
<desc>lat.=22.204760, lon.=104.399200, Alt.=279.629150m. Speed=5.544000m/h.</desc>
<speed>1.540000</speed>
</trkpt>
<trkpt lat="22.204861" lon="104.400818">
<ele>307.2</ele>
<time>2011-04-27T10:20:41Z</time>
<desc>lat.=22.204861, lon.=104.400818, Alt.=278.261963m. Speed=0.072000m/h.</desc>
<speed>0.020000</speed>
</trkpt>
<trkpt lat="22.205564" lon="104.401321">
<ele>292.8</ele>
<time>2011-04-27T10:21:46Z</time>
<desc>lat.=22.205564, lon.=104.401321, Alt.=285.957275m. Speed=9.936000m/h.</desc>
<speed>2.760000</speed>
</trkpt>
<trkpt lat="22.205622" lon="104.401550">
<ele>292.1</ele>
<time>2011-04-27T10:21:56Z</time>
<desc>lat.=22.205622, lon.=104.401550, Alt.=285.996338m. Speed=7.056000m/h.</desc>
<speed>1.960000</speed>
</trkpt>
<trkpt lat="22.205378" lon="104.402306">
<ele>289.5</ele>
<time>2011-04-27T10:22:26Z</time>
<desc>lat.=22.205378, lon.=104.402306, Alt.=290.965088m. Speed=11.592000m/h.</desc>
<speed>3.220000</speed>
</trkpt>
<trkpt lat="22.204884" lon="104.402885">
<ele>294.0</ele>
<time>2011-04-27T10:22:46Z</time>
<desc>lat.=22.204884, lon.=104.402885, Alt.=288.683838m. Speed=13.824000m/h.</desc>
<speed>3.840000</speed>
</trkpt>
<trkpt lat="22.204821" lon="104.403938">
<ele>287.0</ele>
<time>2011-04-27T10:23:11Z</time>
<desc>lat.=22.204821, lon.=104.403938, Alt.=283.660400m. Speed=15.624000m/h.</desc>
<speed>4.340000</speed>
</trkpt>
<trkpt lat="22.205402" lon="104.403900">
<ele>288.2</ele>
<time>2011-04-27T10:23:36Z</time>
<desc>lat.=22.205402, lon.=104.403900, Alt.=287.722900m. Speed=7.884000m/h.</desc>
<speed>2.190000</speed>
</trkpt>
<trkpt lat="22.205692" lon="104.404060">
<ele>293.0</ele>
<time>2011-04-27T10:23:56Z</time>
<desc>lat.=22.205692, lon.=104.404060, Alt.=288.902588m. Speed=6.624000m/h.</desc>
<speed>1.840000</speed>
</trkpt>
<trkpt lat="22.205826" lon="104.404335">
<ele>296.1</ele>
<time>2011-04-27T10:24:11Z</time>
<desc>lat.=22.205826, lon.=104.404335, Alt.=290.551025m. Speed=8.244000m/h.</desc>
<speed>2.290000</speed>
</trkpt>
<trkpt lat="22.205824" lon="104.405098">
<ele>299.3</ele>
<time>2011-04-27T10:24:41Z</time>
<desc>lat.=22.205824, lon.=104.405098, Alt.=295.894775m. Speed=10.512000m/h.</desc>
<speed>2.920000</speed>
</trkpt>
<trkpt lat="22.206228" lon="104.405457">
<ele>302.6</ele>
<time>2011-04-27T10:25:11Z</time>
<desc>lat.=22.206228, lon.=104.405457, Alt.=299.308838m. Speed=5.364000m/h.</desc>
<speed>1.490000</speed>
</trkpt>
<trkpt lat="22.206335" lon="104.406212">
<ele>318.9</ele>
<time>2011-04-27T10:26:01Z</time>
<desc>lat.=22.206335, lon.=104.406212, Alt.=302.910400m. Speed=4.860000m/h.</desc>
<speed>1.350000</speed>
</trkpt>
<trkpt lat="22.207636" lon="104.406548">
<ele>331.7</ele>
<time>2011-04-27T10:27:26Z</time>
<desc>lat.=22.207636, lon.=104.406548, Alt.=316.121338m. Speed=6.192000m/h.</desc>
<speed>1.720000</speed>
</trkpt>
<trkpt lat="22.208008" lon="104.407280">
<ele>348.8</ele>
<time>2011-04-27T10:28:11Z</time>
<desc>lat.=22.208008, lon.=104.407280, Alt.=325.347900m. Speed=6.516000m/h.</desc>
<speed>1.810000</speed>
</trkpt>
<trkpt lat="22.208033" lon="104.407852">
<ele>373.0</ele>
<time>2011-04-27T10:28:41Z</time>
<desc>lat.=22.208033, lon.=104.407852, Alt.=331.261963m. Speed=4.572000m/h.</desc>
<speed>1.270000</speed>
</trkpt>
<trkpt lat="22.208521" lon="104.408791">
<ele>356.4</ele>
<time>2011-04-27T10:30:01Z</time>
<desc>lat.=22.208521, lon.=104.408791, Alt.=348.816650m. Speed=1.512000m/h.</desc>
<speed>0.420000</speed>
</trkpt>
<trkpt lat="22.208319" lon="104.409836">
<ele>359.4</ele>
<time>2011-04-27T10:31:16Z</time>
<desc>lat.=22.208319, lon.=104.409836, Alt.=355.379150m. Speed=6.084000m/h.</desc>
<speed>1.690000</speed>
</trkpt>
<trkpt lat="22.207893" lon="104.410301">
<ele>374.0</ele>
<time>2011-04-27T10:31:56Z</time>
<desc>lat.=22.207893, lon.=104.410301, Alt.=368.535400m. Speed=3.888000m/h.</desc>
<speed>1.080000</speed>
</trkpt>
<trkpt lat="22.207787" lon="104.411095">
<ele>384.1</ele>
<time>2011-04-27T10:32:46Z</time>
<desc>lat.=22.207787, lon.=104.411095, Alt.=389.379150m. Speed=4.500000m/h.</desc>
<speed>1.250000</speed>
</trkpt>
<trkpt lat="22.207962" lon="104.411133">
<ele>382.0</ele>
<time>2011-04-27T10:34:21Z</time>
<desc>lat.=22.207962, lon.=104.411133, Alt.=388.941650m. Speed=4.860000m/h.</desc>
<speed>1.350000</speed>
</trkpt>
<trkpt lat="22.209179" lon="104.410545">
<ele>404.7</ele>
<time>2011-04-27T10:35:51Z</time>
<desc>lat.=22.209179, lon.=104.410545, Alt.=379.027588m. Speed=5.868000m/h.</desc>
<speed>1.630000</speed>
</trkpt>
<trkpt lat="22.209970" lon="104.411049">
<ele>404.2</ele>
<time>2011-04-27T10:37:01Z</time>
<desc>lat.=22.209970, lon.=104.411049, Alt.=403.238525m. Speed=7.236000m/h.</desc>
<speed>2.010000</speed>
</trkpt>
<trkpt lat="22.209696" lon="104.411919">
<ele>422.5</ele>
<time>2011-04-27T10:37:51Z</time>
<desc>lat.=22.209696, lon.=104.411919, Alt.=403.129150m. Speed=7.092000m/h.</desc>
<speed>1.970000</speed>
</trkpt>
<trkpt lat="22.210045" lon="104.412140">
<ele>415.0</ele>
<time>2011-04-27T10:38:16Z</time>
<desc>lat.=22.210045, lon.=104.412140, Alt.=407.136963m. Speed=6.408000m/h.</desc>
<speed>1.780000</speed>
</trkpt>
<trkpt lat="22.210075" lon="104.412399">
<ele>416.0</ele>
<time>2011-04-27T10:38:31Z</time>
<desc>lat.=22.210075, lon.=104.412399, Alt.=409.699463m. Speed=5.724000m/h.</desc>
<speed>1.590000</speed>
</trkpt>
<trkpt lat="22.209675" lon="104.412811">
<ele>438.3</ele>
<time>2011-04-27T10:40:11Z</time>
<desc>lat.=22.209675, lon.=104.412811, Alt.=416.590088m. Speed=4.320000m/h.</desc>
<speed>1.200000</speed>
</trkpt>
<trkpt lat="22.210178" lon="104.413353">
<ele>441.5</ele>
<time>2011-04-27T10:40:56Z</time>
<desc>lat.=22.210178, lon.=104.413353, Alt.=424.926025m. Speed=4.788000m/h.</desc>
<speed>1.330000</speed>
</trkpt>
<trkpt lat="22.210161" lon="104.413971">
<ele>450.1</ele>
<time>2011-04-27T10:41:36Z</time>
<desc>lat.=22.210161, lon.=104.413971, Alt.=433.941650m. Speed=7.812000m/h.</desc>
<speed>2.170000</speed>
</trkpt>
<trkpt lat="22.210405" lon="104.414017">
<ele>451.8</ele>
<time>2011-04-27T10:41:51Z</time>
<desc>lat.=22.210405, lon.=104.414017, Alt.=440.730713m. Speed=5.832000m/h.</desc>
<speed>1.620000</speed>
</trkpt>
<trkpt lat="22.211042" lon="104.413681">
<ele>439.7</ele>
<time>2011-04-27T10:42:41Z</time>
<desc>lat.=22.211042, lon.=104.413681, Alt.=448.574463m. Speed=0.036000m/h.</desc>
<speed>0.010000</speed>
</trkpt>
<trkpt lat="22.211269" lon="104.413727">
<ele>448.0</ele>
<time>2011-04-27T10:43:06Z</time>
<desc>lat.=22.211269, lon.=104.413727, Alt.=448.918213m. Speed=6.120000m/h.</desc>
<speed>1.700000</speed>
</trkpt>
<trkpt lat="22.211647" lon="104.414513">
<ele>469.3</ele>
<time>2011-04-27T10:43:56Z</time>
<desc>lat.=22.211647, lon.=104.414513, Alt.=452.738525m. Speed=8.424000m/h.</desc>
<speed>2.340000</speed>
</trkpt>
<trkpt lat="22.212273" lon="104.415039">
<ele>466.0</ele>
<time>2011-04-27T10:44:36Z</time>
<desc>lat.=22.212273, lon.=104.415039, Alt.=459.785400m. Speed=8.028000m/h.</desc>
<speed>2.230000</speed>
</trkpt>
<trkpt lat="22.212379" lon="104.415550">
<ele>459.4</ele>
<time>2011-04-27T10:45:21Z</time>
<desc>lat.=22.212379, lon.=104.415550, Alt.=460.949463m. Speed=0.756000m/h.</desc>
<speed>0.210000</speed>
</trkpt>
<trkpt lat="22.212433" lon="104.415230">
<ele>462.9</ele>
<time>2011-04-27T10:51:16Z</time>
<desc>lat.=22.212433, lon.=104.415230, Alt.=463.433838m. Speed=2.916000m/h.</desc>
<speed>0.810000</speed>
</trkpt>
<trkpt lat="22.212337" lon="104.415283">
<ele>464.2</ele>
<time>2011-04-27T11:20:51Z</time>
<desc>lat.=22.212337, lon.=104.415283, Alt.=460.152588m. Speed=4.392000m/h.</desc>
<speed>1.220000</speed>
</trkpt>
<trkpt lat="22.212461" lon="104.415802">
<ele>454.8</ele>
<time>2011-04-27T11:21:11Z</time>
<desc>lat.=22.212461, lon.=104.415802, Alt.=458.121338m. Speed=11.808000m/h.</desc>
<speed>3.280000</speed>
</trkpt>
<trkpt lat="22.212786" lon="104.416061">
<ele>453.4</ele>
<time>2011-04-27T11:21:21Z</time>
<desc>lat.=22.212786, lon.=104.416061, Alt.=454.668213m. Speed=13.428000m/h.</desc>
<speed>3.730000</speed>
</trkpt>
<trkpt lat="22.212658" lon="104.416801">
<ele>441.1</ele>
<time>2011-04-27T11:21:36Z</time>
<desc>lat.=22.212658, lon.=104.416801, Alt.=451.676025m. Speed=18.612000m/h.</desc>
<speed>5.170000</speed>
</trkpt>
<trkpt lat="22.212975" lon="104.417336">
<ele>445.0</ele>
<time>2011-04-27T11:21:51Z</time>
<desc>lat.=22.212975, lon.=104.417336, Alt.=450.090088m. Speed=15.084000m/h.</desc>
<speed>4.190000</speed>
</trkpt>
<trkpt lat="22.212996" lon="104.418449">
<ele>434.7</ele>
<time>2011-04-27T11:22:11Z</time>
<desc>lat.=22.212996, lon.=104.418449, Alt.=443.738525m. Speed=19.080000m/h.</desc>
<speed>5.300000</speed>
</trkpt>
<trkpt lat="22.213137" lon="104.418663">
<ele>434.0</ele>
<time>2011-04-27T11:22:16Z</time>
<desc>lat.=22.213137, lon.=104.418663, Alt.=440.910400m. Speed=20.016001m/h.</desc>
<speed>5.560000</speed>
</trkpt>
<trkpt lat="22.213812" lon="104.418861">
<ele>429.8</ele>
<time>2011-04-27T11:22:31Z</time>
<desc>lat.=22.213812, lon.=104.418861, Alt.=433.121338m. Speed=17.639999m/h.</desc>
<speed>4.900000</speed>
</trkpt>
<trkpt lat="22.214693" lon="104.419678">
<ele>419.6</ele>
<time>2011-04-27T11:22:51Z</time>
<desc>lat.=22.214693, lon.=104.419678, Alt.=421.363525m. Speed=17.316000m/h.</desc>
<speed>4.810000</speed>
</trkpt>
<trkpt lat="22.214590" lon="104.420174">
<ele>419.9</ele>
<time>2011-04-27T11:23:01Z</time>
<desc>lat.=22.214590, lon.=104.420174, Alt.=418.660400m. Speed=20.016001m/h.</desc>
<speed>5.560000</speed>
</trkpt>
<trkpt lat="22.214087" lon="104.420753">
<ele>406.6</ele>
<time>2011-04-27T11:23:16Z</time>
<desc>lat.=22.214087, lon.=104.420753, Alt.=414.597900m. Speed=19.691999m/h.</desc>
<speed>5.470000</speed>
</trkpt>
<trkpt lat="22.214031" lon="104.421333">
<ele>407.0</ele>
<time>2011-04-27T11:23:26Z</time>
<desc>lat.=22.214031, lon.=104.421333, Alt.=409.090088m. Speed=18.756001m/h.</desc>
<speed>5.210000</speed>
</trkpt>
<trkpt lat="22.213551" lon="104.422432">
<ele>388.9</ele>
<time>2011-04-27T11:23:51Z</time>
<desc>lat.=22.213551, lon.=104.422432, Alt.=396.949463m. Speed=13.932000m/h.</desc>
<speed>3.870000</speed>
</trkpt>
<trkpt lat="22.213655" lon="104.422585">
<ele>388.5</ele>
<time>2011-04-27T11:23:56Z</time>
<desc>lat.=22.213655, lon.=104.422585, Alt.=393.715088m. Speed=14.616000m/h.</desc>
<speed>4.060000</speed>
</trkpt>
<trkpt lat="22.215130" lon="104.422997">
<ele>388.3</ele>
<time>2011-04-27T11:24:36Z</time>
<desc>lat.=22.215130, lon.=104.422997, Alt.=377.113525m. Speed=9.252000m/h.</desc>
<speed>2.570000</speed>
</trkpt>
<trkpt lat="22.215860" lon="104.423058">
<ele>393.0</ele>
<time>2011-04-27T11:25:16Z</time>
<desc>lat.=22.215860, lon.=104.423058, Alt.=394.644775m. Speed=6.012000m/h.</desc>
<speed>1.670000</speed>
</trkpt>
<trkpt lat="22.216051" lon="104.423286">
<ele>395.3</ele>
<time>2011-04-27T11:25:31Z</time>
<desc>lat.=22.216051, lon.=104.423286, Alt.=400.191650m. Speed=9.216000m/h.</desc>
<speed>2.560000</speed>
</trkpt>
<trkpt lat="22.215687" lon="104.424553">
<ele>399.4</ele>
<time>2011-04-27T11:26:51Z</time>
<desc>lat.=22.215687, lon.=104.424553, Alt.=407.316650m. Speed=10.152000m/h.</desc>
<speed>2.820000</speed>
</trkpt>
<trkpt lat="22.214678" lon="104.425812">
<ele>395.2</ele>
<time>2011-04-27T11:27:46Z</time>
<desc>lat.=22.214678, lon.=104.425812, Alt.=399.074463m. Speed=11.592000m/h.</desc>
<speed>3.220000</speed>
</trkpt>
<trkpt lat="22.214207" lon="104.426979">
<ele>381.2</ele>
<time>2011-04-27T11:28:16Z</time>
<desc>lat.=22.214207, lon.=104.426979, Alt.=395.707275m. Speed=21.492001m/h.</desc>
<speed>5.970000</speed>
</trkpt>
<trkpt lat="22.214308" lon="104.427231">
<ele>385.4</ele>
<time>2011-04-27T11:28:21Z</time>
<desc>lat.=22.214308, lon.=104.427231, Alt.=394.301025m. Speed=18.612000m/h.</desc>
<speed>5.170000</speed>
</trkpt>
<trkpt lat="22.214561" lon="104.427269">
<ele>386.8</ele>
<time>2011-04-27T11:28:26Z</time>
<desc>lat.=22.214561, lon.=104.427269, Alt.=393.136963m. Speed=21.240000m/h.</desc>
<speed>5.900000</speed>
</trkpt>
<trkpt lat="22.215246" lon="104.426804">
<ele>398.6</ele>
<time>2011-04-27T11:28:41Z</time>
<desc>lat.=22.215246, lon.=104.426804, Alt.=383.121338m. Speed=22.032000m/h.</desc>
<speed>6.120000</speed>
</trkpt>
<trkpt lat="22.215530" lon="104.426788">
<ele>393.6</ele>
<time>2011-04-27T11:28:46Z</time>
<desc>lat.=22.215530, lon.=104.426788, Alt.=382.879150m. Speed=20.628000m/h.</desc>
<speed>5.730000</speed>
</trkpt>
<trkpt lat="22.215698" lon="104.426956">
<ele>389.9</ele>
<time>2011-04-27T11:28:51Z</time>
<desc>lat.=22.215698, lon.=104.426956, Alt.=382.629150m. Speed=20.124001m/h.</desc>
<speed>5.590000</speed>
</trkpt>
<trkpt lat="22.215565" lon="104.429047">
<ele>369.7</ele>
<time>2011-04-27T11:29:26Z</time>
<desc>lat.=22.215565, lon.=104.429047, Alt.=368.855713m. Speed=20.087999m/h.</desc>
<speed>5.580000</speed>
</trkpt>
<trkpt lat="22.214836" lon="104.430367">
<ele>358.9</ele>
<time>2011-04-27T11:29:51Z</time>
<desc>lat.=22.214836, lon.=104.430367, Alt.=367.472900m. Speed=22.032000m/h.</desc>
<speed>6.120000</speed>
</trkpt>
<trkpt lat="22.214987" lon="104.430656">
<ele>355.9</ele>
<time>2011-04-27T11:29:56Z</time>
<desc>lat.=22.214987, lon.=104.430656, Alt.=363.879150m. Speed=24.660000m/h.</desc>
<speed>6.850000</speed>
</trkpt>
<trkpt lat="22.215534" lon="104.430954">
<ele>345.3</ele>
<time>2011-04-27T11:30:06Z</time>
<desc>lat.=22.215534, lon.=104.430954, Alt.=357.808838m. Speed=24.156000m/h.</desc>
<speed>6.710000</speed>
</trkpt>
<trkpt lat="22.216154" lon="104.431084">
<ele>347.5</ele>
<time>2011-04-27T11:30:16Z</time>
<desc>lat.=22.216154, lon.=104.431084, Alt.=349.941650m. Speed=19.368000m/h.</desc>
<speed>5.380000</speed>
</trkpt>
<trkpt lat="22.216999" lon="104.430878">
<ele>339.4</ele>
<time>2011-04-27T11:30:36Z</time>
<desc>lat.=22.216999, lon.=104.430878, Alt.=337.301025m. Speed=13.572000m/h.</desc>
<speed>3.770000</speed>
</trkpt>
<trkpt lat="22.217567" lon="104.431465">
<ele>329.5</ele>
<time>2011-04-27T11:30:56Z</time>
<desc>lat.=22.217567, lon.=104.431465, Alt.=326.824463m. Speed=11.232000m/h.</desc>
<speed>3.120000</speed>
</trkpt>
<trkpt lat="22.217365" lon="104.431938">
<ele>319.5</ele>
<time>2011-04-27T11:31:11Z</time>
<desc>lat.=22.217365, lon.=104.431938, Alt.=323.613525m. Speed=14.004000m/h.</desc>
<speed>3.890000</speed>
</trkpt>
<trkpt lat="22.217367" lon="104.432365">
<ele>312.9</ele>
<time>2011-04-27T11:31:41Z</time>
<desc>lat.=22.217367, lon.=104.432365, Alt.=319.941650m. Speed=0.036000m/h.</desc>
<speed>0.010000</speed>
</trkpt>
<trkpt lat="22.218048" lon="104.432816">
<ele>319.6</ele>
<time>2011-04-27T11:32:31Z</time>
<desc>lat.=22.218048, lon.=104.432816, Alt.=312.121338m. Speed=9.468000m/h.</desc>
<speed>2.630000</speed>
</trkpt>
</trkseg>
</trk>
</gpx>